<?xml version="1.0" encoding="UTF-8" standalone="no" ?>
<gpx xmlns="http://www.topografix.com/GPX/1/1" xmlns:xsi="http://www.w3.org/2001/XMLSchema-instance" xsi:schemaLocation="http://www.topografix.com/GPX/1/1 http://www.topografix.com/GPX/1/1/gpx.xsd" version="1.1" creator="VisuGPX - https://www.visugpx.com">
  <metadata>
    <name>Les Lindarets (Montriond/Morzine)</name>
    <desc><![CDATA[Rando en boucle : Départ des Lindarets - Montée à la Pointe des Lanches - Col de l'Aup Couti - Montée à la Pointe des Lindarets (vue sur le fantasticable de Châtel) - Retour aux Lindarets]]></desc>
  </metadata>
  <trk>
    <name><![CDATA[2 août 2016 09:38:56]]></name>
    <trkseg>
      <trkpt lat="46.2104" lon="6.77432">
        <ele>1554</ele>
        <time>2016-08-02T07:38:54.000Z</time>
      </trkpt>
      <trkpt lat="46.21048" lon="6.77428">
        <ele>1532</ele>
        <time>2016-08-02T07:41:14.000Z</time>
      </trkpt>
      <trkpt lat="46.21058" lon="6.77423">
        <ele>1527</ele>
        <time>2016-08-02T07:41:22.000Z</time>
      </trkpt>
      <trkpt lat="46.21068" lon="6.77421">
        <ele>1520</ele>
        <time>2016-08-02T07:41:29.000Z</time>
      </trkpt>
      <trkpt lat="46.21077" lon="6.77416">
        <ele>1519</ele>
        <time>2016-08-02T07:41:36.000Z</time>
      </trkpt>
      <trkpt lat="46.21087" lon="6.77411">
        <ele>1519</ele>
        <time>2016-08-02T07:41:43.000Z</time>
      </trkpt>
      <trkpt lat="46.21095" lon="6.77402">
        <ele>1516</ele>
        <time>2016-08-02T07:41:51.000Z</time>
      </trkpt>
      <trkpt lat="46.21102" lon="6.77394">
        <ele>1511</ele>
        <time>2016-08-02T07:41:59.000Z</time>
      </trkpt>
      <trkpt lat="46.21107" lon="6.77382">
        <ele>1521</ele>
        <time>2016-08-02T07:42:19.000Z</time>
      </trkpt>
      <trkpt lat="46.21116" lon="6.77377">
        <ele>1523</ele>
        <time>2016-08-02T07:42:27.000Z</time>
      </trkpt>
      <trkpt lat="46.21125" lon="6.7737">
        <ele>1519</ele>
        <time>2016-08-02T07:42:36.000Z</time>
      </trkpt>
      <trkpt lat="46.21132" lon="6.77361">
        <ele>1515</ele>
        <time>2016-08-02T07:42:47.000Z</time>
      </trkpt>
      <trkpt lat="46.21141" lon="6.77354">
        <ele>1522</ele>
        <time>2016-08-02T07:43:03.000Z</time>
      </trkpt>
      <trkpt lat="46.21149" lon="6.77346">
        <ele>1519</ele>
        <time>2016-08-02T07:43:09.000Z</time>
      </trkpt>
      <trkpt lat="46.21159" lon="6.77339">
        <ele>1517</ele>
        <time>2016-08-02T07:43:17.000Z</time>
      </trkpt>
      <trkpt lat="46.21167" lon="6.77333">
        <ele>1516</ele>
        <time>2016-08-02T07:43:24.000Z</time>
      </trkpt>
      <trkpt lat="46.21174" lon="6.77324">
        <ele>1525</ele>
        <time>2016-08-02T07:44:05.000Z</time>
      </trkpt>
      <trkpt lat="46.21182" lon="6.77317">
        <ele>1524</ele>
        <time>2016-08-02T07:44:32.000Z</time>
      </trkpt>
      <trkpt lat="46.2119" lon="6.77309">
        <ele>1524</ele>
        <time>2016-08-02T07:44:38.000Z</time>
      </trkpt>
      <trkpt lat="46.21197" lon="6.77301">
        <ele>1520</ele>
        <time>2016-08-02T07:44:48.000Z</time>
      </trkpt>
      <trkpt lat="46.21203" lon="6.77288">
        <ele>1518</ele>
        <time>2016-08-02T07:44:59.000Z</time>
      </trkpt>
      <trkpt lat="46.21203" lon="6.77274">
        <ele>1520</ele>
        <time>2016-08-02T07:45:03.000Z</time>
      </trkpt>
      <trkpt lat="46.21209" lon="6.77263">
        <ele>1522</ele>
        <time>2016-08-02T07:45:18.000Z</time>
      </trkpt>
      <trkpt lat="46.21215" lon="6.77252">
        <ele>1518</ele>
        <time>2016-08-02T07:45:37.000Z</time>
      </trkpt>
      <trkpt lat="46.21222" lon="6.77245">
        <ele>1518</ele>
        <time>2016-08-02T07:45:44.000Z</time>
      </trkpt>
      <trkpt lat="46.21232" lon="6.77237">
        <ele>1518</ele>
        <time>2016-08-02T07:45:53.000Z</time>
      </trkpt>
      <trkpt lat="46.2124" lon="6.77232">
        <ele>1518</ele>
        <time>2016-08-02T07:45:59.000Z</time>
      </trkpt>
      <trkpt lat="46.21249" lon="6.77228">
        <ele>1519</ele>
        <time>2016-08-02T07:46:07.000Z</time>
      </trkpt>
      <trkpt lat="46.21258" lon="6.77224">
        <ele>1519</ele>
        <time>2016-08-02T07:46:14.000Z</time>
      </trkpt>
      <trkpt lat="46.21268" lon="6.77223">
        <ele>1520</ele>
        <time>2016-08-02T07:46:21.000Z</time>
      </trkpt>
      <trkpt lat="46.21277" lon="6.77224">
        <ele>1517</ele>
        <time>2016-08-02T07:46:32.000Z</time>
      </trkpt>
      <trkpt lat="46.21286" lon="6.77222">
        <ele>1516</ele>
        <time>2016-08-02T07:46:38.000Z</time>
      </trkpt>
      <trkpt lat="46.21296" lon="6.77222">
        <ele>1519</ele>
        <time>2016-08-02T07:46:46.000Z</time>
      </trkpt>
      <trkpt lat="46.21306" lon="6.77227">
        <ele>1519</ele>
        <time>2016-08-02T07:46:52.000Z</time>
      </trkpt>
      <trkpt lat="46.21315" lon="6.77224">
        <ele>1516</ele>
        <time>2016-08-02T07:47:01.000Z</time>
      </trkpt>
      <trkpt lat="46.21324" lon="6.77225">
        <ele>1515</ele>
        <time>2016-08-02T07:47:09.000Z</time>
      </trkpt>
      <trkpt lat="46.21333" lon="6.77227">
        <ele>1512</ele>
        <time>2016-08-02T07:47:14.000Z</time>
      </trkpt>
      <trkpt lat="46.21341" lon="6.7722">
        <ele>1514</ele>
        <time>2016-08-02T07:47:21.000Z</time>
      </trkpt>
      <trkpt lat="46.2135" lon="6.77214">
        <ele>1513</ele>
        <time>2016-08-02T07:47:31.000Z</time>
      </trkpt>
      <trkpt lat="46.21357" lon="6.77206">
        <ele>1515</ele>
        <time>2016-08-02T07:47:39.000Z</time>
      </trkpt>
      <trkpt lat="46.21366" lon="6.77203">
        <ele>1513</ele>
        <time>2016-08-02T07:47:45.000Z</time>
      </trkpt>
      <trkpt lat="46.21376" lon="6.77206">
        <ele>1515</ele>
        <time>2016-08-02T07:48:09.000Z</time>
      </trkpt>
      <trkpt lat="46.21385" lon="6.77203">
        <ele>1515</ele>
        <time>2016-08-02T07:48:20.000Z</time>
      </trkpt>
      <trkpt lat="46.21393" lon="6.77197">
        <ele>1517</ele>
        <time>2016-08-02T07:48:26.000Z</time>
      </trkpt>
      <trkpt lat="46.21402" lon="6.77193">
        <ele>1507</ele>
        <time>2016-08-02T07:48:32.000Z</time>
      </trkpt>
      <trkpt lat="46.21411" lon="6.77187">
        <ele>1510</ele>
        <time>2016-08-02T07:48:41.000Z</time>
      </trkpt>
      <trkpt lat="46.21419" lon="6.77181">
        <ele>1513</ele>
        <time>2016-08-02T07:48:49.000Z</time>
      </trkpt>
      <trkpt lat="46.21427" lon="6.77175">
        <ele>1515</ele>
        <time>2016-08-02T07:48:56.000Z</time>
      </trkpt>
      <trkpt lat="46.21436" lon="6.77168">
        <ele>1510</ele>
        <time>2016-08-02T07:49:04.000Z</time>
      </trkpt>
      <trkpt lat="46.21445" lon="6.7716">
        <ele>1512</ele>
        <time>2016-08-02T07:49:25.000Z</time>
      </trkpt>
      <trkpt lat="46.21454" lon="6.77155">
        <ele>1511</ele>
        <time>2016-08-02T07:49:34.000Z</time>
      </trkpt>
      <trkpt lat="46.21463" lon="6.77149">
        <ele>1510</ele>
        <time>2016-08-02T07:49:42.000Z</time>
      </trkpt>
      <trkpt lat="46.21471" lon="6.77144">
        <ele>1509</ele>
        <time>2016-08-02T07:49:49.000Z</time>
      </trkpt>
      <trkpt lat="46.2148" lon="6.7714">
        <ele>1508</ele>
        <time>2016-08-02T07:49:56.000Z</time>
      </trkpt>
      <trkpt lat="46.21488" lon="6.77131">
        <ele>1509</ele>
        <time>2016-08-02T07:50:05.000Z</time>
      </trkpt>
      <trkpt lat="46.21496" lon="6.77124">
        <ele>1511</ele>
        <time>2016-08-02T07:50:12.000Z</time>
      </trkpt>
      <trkpt lat="46.21504" lon="6.77118">
        <ele>1513</ele>
        <time>2016-08-02T07:50:29.000Z</time>
      </trkpt>
      <trkpt lat="46.21514" lon="6.7712">
        <ele>1515</ele>
        <time>2016-08-02T07:50:47.000Z</time>
      </trkpt>
      <trkpt lat="46.21521" lon="6.77111">
        <ele>1514</ele>
        <time>2016-08-02T07:50:58.000Z</time>
      </trkpt>
      <trkpt lat="46.21525" lon="6.77099">
        <ele>1513</ele>
        <time>2016-08-02T07:51:04.000Z</time>
      </trkpt>
      <trkpt lat="46.21532" lon="6.77089">
        <ele>1513</ele>
        <time>2016-08-02T07:51:12.000Z</time>
      </trkpt>
      <trkpt lat="46.21537" lon="6.77078">
        <ele>1515</ele>
        <time>2016-08-02T07:51:22.000Z</time>
      </trkpt>
      <trkpt lat="46.21541" lon="6.77064">
        <ele>1519</ele>
        <time>2016-08-02T07:51:34.000Z</time>
      </trkpt>
      <trkpt lat="46.21546" lon="6.77054">
        <ele>1521</ele>
        <time>2016-08-02T07:51:42.000Z</time>
      </trkpt>
      <trkpt lat="46.21551" lon="6.77041">
        <ele>1522</ele>
        <time>2016-08-02T07:51:51.000Z</time>
      </trkpt>
      <trkpt lat="46.21558" lon="6.77031">
        <ele>1523</ele>
        <time>2016-08-02T07:51:58.000Z</time>
      </trkpt>
      <trkpt lat="46.21564" lon="6.77018">
        <ele>1520</ele>
        <time>2016-08-02T07:52:06.000Z</time>
      </trkpt>
      <trkpt lat="46.2157" lon="6.77008">
        <ele>1517</ele>
        <time>2016-08-02T07:52:15.000Z</time>
      </trkpt>
      <trkpt lat="46.21574" lon="6.76996">
        <ele>1519</ele>
        <time>2016-08-02T07:52:25.000Z</time>
      </trkpt>
      <trkpt lat="46.21576" lon="6.76983">
        <ele>1525</ele>
        <time>2016-08-02T07:52:33.000Z</time>
      </trkpt>
      <trkpt lat="46.21578" lon="6.76969">
        <ele>1531</ele>
        <time>2016-08-02T07:52:41.000Z</time>
      </trkpt>
      <trkpt lat="46.21584" lon="6.76958">
        <ele>1528</ele>
        <time>2016-08-02T07:52:50.000Z</time>
      </trkpt>
      <trkpt lat="46.21582" lon="6.76945">
        <ele>1537</ele>
        <time>2016-08-02T07:52:58.000Z</time>
      </trkpt>
      <trkpt lat="46.21582" lon="6.76931">
        <ele>1539</ele>
        <time>2016-08-02T07:53:05.000Z</time>
      </trkpt>
      <trkpt lat="46.21582" lon="6.76918">
        <ele>1546</ele>
        <time>2016-08-02T07:53:13.000Z</time>
      </trkpt>
      <trkpt lat="46.21588" lon="6.76905">
        <ele>1539</ele>
        <time>2016-08-02T07:53:21.000Z</time>
      </trkpt>
      <trkpt lat="46.21593" lon="6.76894">
        <ele>1538</ele>
        <time>2016-08-02T07:53:29.000Z</time>
      </trkpt>
      <trkpt lat="46.21597" lon="6.76882">
        <ele>1539</ele>
        <time>2016-08-02T07:53:36.000Z</time>
      </trkpt>
      <trkpt lat="46.21599" lon="6.76869">
        <ele>1541</ele>
        <time>2016-08-02T07:53:48.000Z</time>
      </trkpt>
      <trkpt lat="46.21605" lon="6.76859">
        <ele>1537</ele>
        <time>2016-08-02T07:53:55.000Z</time>
      </trkpt>
      <trkpt lat="46.2161" lon="6.76848">
        <ele>1532</ele>
        <time>2016-08-02T07:54:03.000Z</time>
      </trkpt>
      <trkpt lat="46.21618" lon="6.76841">
        <ele>1519</ele>
        <time>2016-08-02T07:54:14.000Z</time>
      </trkpt>
      <trkpt lat="46.21624" lon="6.7683">
        <ele>1518</ele>
        <time>2016-08-02T07:54:26.000Z</time>
      </trkpt>
      <trkpt lat="46.21629" lon="6.76818">
        <ele>1524</ele>
        <time>2016-08-02T07:54:36.000Z</time>
      </trkpt>
      <trkpt lat="46.21629" lon="6.76805">
        <ele>1532</ele>
        <time>2016-08-02T07:54:46.000Z</time>
      </trkpt>
      <trkpt lat="46.21635" lon="6.76793">
        <ele>1526</ele>
        <time>2016-08-02T07:54:54.000Z</time>
      </trkpt>
      <trkpt lat="46.21641" lon="6.76783">
        <ele>1524</ele>
        <time>2016-08-02T07:55:01.000Z</time>
      </trkpt>
      <trkpt lat="46.21644" lon="6.76768">
        <ele>1529</ele>
        <time>2016-08-02T07:55:11.000Z</time>
      </trkpt>
      <trkpt lat="46.21648" lon="6.76756">
        <ele>1531</ele>
        <time>2016-08-02T07:55:23.000Z</time>
      </trkpt>
      <trkpt lat="46.21655" lon="6.76748">
        <ele>1539</ele>
        <time>2016-08-02T07:55:36.000Z</time>
      </trkpt>
      <trkpt lat="46.21665" lon="6.76746">
        <ele>1536</ele>
        <time>2016-08-02T07:55:44.000Z</time>
      </trkpt>
      <trkpt lat="46.21668" lon="6.76733">
        <ele>1540</ele>
        <time>2016-08-02T07:55:56.000Z</time>
      </trkpt>
      <trkpt lat="46.21676" lon="6.76724">
        <ele>1539</ele>
        <time>2016-08-02T07:56:06.000Z</time>
      </trkpt>
      <trkpt lat="46.21681" lon="6.76711">
        <ele>1539</ele>
        <time>2016-08-02T07:56:33.000Z</time>
      </trkpt>
      <trkpt lat="46.21689" lon="6.76705">
        <ele>1545</ele>
        <time>2016-08-02T07:56:43.000Z</time>
      </trkpt>
      <trkpt lat="46.21697" lon="6.76699">
        <ele>1542</ele>
        <time>2016-08-02T07:56:55.000Z</time>
      </trkpt>
      <trkpt lat="46.21701" lon="6.76687">
        <ele>1548</ele>
        <time>2016-08-02T07:57:10.000Z</time>
      </trkpt>
      <trkpt lat="46.21709" lon="6.76679">
        <ele>1551</ele>
        <time>2016-08-02T07:57:22.000Z</time>
      </trkpt>
      <trkpt lat="46.21716" lon="6.7667">
        <ele>1547</ele>
        <time>2016-08-02T07:57:30.000Z</time>
      </trkpt>
      <trkpt lat="46.2172" lon="6.76657">
        <ele>1547</ele>
        <time>2016-08-02T07:57:39.000Z</time>
      </trkpt>
      <trkpt lat="46.21725" lon="6.76646">
        <ele>1544</ele>
        <time>2016-08-02T07:57:47.000Z</time>
      </trkpt>
      <trkpt lat="46.21727" lon="6.76633">
        <ele>1549</ele>
        <time>2016-08-02T07:57:57.000Z</time>
      </trkpt>
      <trkpt lat="46.21731" lon="6.76621">
        <ele>1555</ele>
        <time>2016-08-02T07:58:06.000Z</time>
      </trkpt>
      <trkpt lat="46.21738" lon="6.76613">
        <ele>1556</ele>
        <time>2016-08-02T07:58:15.000Z</time>
      </trkpt>
      <trkpt lat="46.21746" lon="6.76601">
        <ele>1553</ele>
        <time>2016-08-02T07:58:25.000Z</time>
      </trkpt>
      <trkpt lat="46.21754" lon="6.76593">
        <ele>1549</ele>
        <time>2016-08-02T07:58:35.000Z</time>
      </trkpt>
      <trkpt lat="46.21761" lon="6.76583">
        <ele>1551</ele>
        <time>2016-08-02T07:58:45.000Z</time>
      </trkpt>
      <trkpt lat="46.21769" lon="6.76574">
        <ele>1548</ele>
        <time>2016-08-02T07:58:54.000Z</time>
      </trkpt>
      <trkpt lat="46.21775" lon="6.76562">
        <ele>1547</ele>
        <time>2016-08-02T07:59:10.000Z</time>
      </trkpt>
      <trkpt lat="46.21779" lon="6.7655">
        <ele>1549</ele>
        <time>2016-08-02T07:59:23.000Z</time>
      </trkpt>
      <trkpt lat="46.21785" lon="6.76539">
        <ele>1550</ele>
        <time>2016-08-02T07:59:32.000Z</time>
      </trkpt>
      <trkpt lat="46.21791" lon="6.76528">
        <ele>1559</ele>
        <time>2016-08-02T07:59:49.000Z</time>
      </trkpt>
      <trkpt lat="46.218" lon="6.76519">
        <ele>1559</ele>
        <time>2016-08-02T07:59:57.000Z</time>
      </trkpt>
      <trkpt lat="46.21804" lon="6.76507">
        <ele>1565</ele>
        <time>2016-08-02T08:00:08.000Z</time>
      </trkpt>
      <trkpt lat="46.2181" lon="6.76497">
        <ele>1558</ele>
        <time>2016-08-02T08:00:14.000Z</time>
      </trkpt>
      <trkpt lat="46.21817" lon="6.7649">
        <ele>1560</ele>
        <time>2016-08-02T08:00:25.000Z</time>
      </trkpt>
      <trkpt lat="46.21825" lon="6.7648">
        <ele>1560</ele>
        <time>2016-08-02T08:00:33.000Z</time>
      </trkpt>
      <trkpt lat="46.21833" lon="6.76472">
        <ele>1562</ele>
        <time>2016-08-02T08:00:40.000Z</time>
      </trkpt>
      <trkpt lat="46.2184" lon="6.76463">
        <ele>1568</ele>
        <time>2016-08-02T08:00:50.000Z</time>
      </trkpt>
      <trkpt lat="46.21845" lon="6.76451">
        <ele>1567</ele>
        <time>2016-08-02T08:00:57.000Z</time>
      </trkpt>
      <trkpt lat="46.21853" lon="6.76443">
        <ele>1568</ele>
        <time>2016-08-02T08:01:10.000Z</time>
      </trkpt>
      <trkpt lat="46.21858" lon="6.76432">
        <ele>1569</ele>
        <time>2016-08-02T08:01:19.000Z</time>
      </trkpt>
      <trkpt lat="46.21865" lon="6.76422">
        <ele>1568</ele>
        <time>2016-08-02T08:01:31.000Z</time>
      </trkpt>
      <trkpt lat="46.21871" lon="6.76412">
        <ele>1569</ele>
        <time>2016-08-02T08:01:40.000Z</time>
      </trkpt>
      <trkpt lat="46.21879" lon="6.76406">
        <ele>1565</ele>
        <time>2016-08-02T08:01:48.000Z</time>
      </trkpt>
      <trkpt lat="46.21887" lon="6.76398">
        <ele>1561</ele>
        <time>2016-08-02T08:02:01.000Z</time>
      </trkpt>
      <trkpt lat="46.21897" lon="6.76395">
        <ele>1568</ele>
        <time>2016-08-02T08:02:14.000Z</time>
      </trkpt>
      <trkpt lat="46.21906" lon="6.76389">
        <ele>1573</ele>
        <time>2016-08-02T08:02:24.000Z</time>
      </trkpt>
      <trkpt lat="46.21912" lon="6.7638">
        <ele>1572</ele>
        <time>2016-08-02T08:02:30.000Z</time>
      </trkpt>
      <trkpt lat="46.21917" lon="6.76369">
        <ele>1572</ele>
        <time>2016-08-02T08:02:36.000Z</time>
      </trkpt>
      <trkpt lat="46.21923" lon="6.76359">
        <ele>1572</ele>
        <time>2016-08-02T08:02:48.000Z</time>
      </trkpt>
      <trkpt lat="46.21931" lon="6.7635">
        <ele>1575</ele>
        <time>2016-08-02T08:02:59.000Z</time>
      </trkpt>
      <trkpt lat="46.21941" lon="6.76351">
        <ele>1574</ele>
        <time>2016-08-02T08:03:08.000Z</time>
      </trkpt>
      <trkpt lat="46.21949" lon="6.76344">
        <ele>1579</ele>
        <time>2016-08-02T08:03:21.000Z</time>
      </trkpt>
      <trkpt lat="46.21958" lon="6.76339">
        <ele>1582</ele>
        <time>2016-08-02T08:03:31.000Z</time>
      </trkpt>
      <trkpt lat="46.21967" lon="6.76337">
        <ele>1583</ele>
        <time>2016-08-02T08:03:37.000Z</time>
      </trkpt>
      <trkpt lat="46.21976" lon="6.76332">
        <ele>1581</ele>
        <time>2016-08-02T08:03:46.000Z</time>
      </trkpt>
      <trkpt lat="46.21985" lon="6.76328">
        <ele>1582</ele>
        <time>2016-08-02T08:04:00.000Z</time>
      </trkpt>
      <trkpt lat="46.21984" lon="6.76314">
        <ele>1583</ele>
        <time>2016-08-02T08:04:10.000Z</time>
      </trkpt>
      <trkpt lat="46.2199" lon="6.76302">
        <ele>1586</ele>
        <time>2016-08-02T08:04:22.000Z</time>
      </trkpt>
      <trkpt lat="46.21996" lon="6.76292">
        <ele>1584</ele>
        <time>2016-08-02T08:04:29.000Z</time>
      </trkpt>
      <trkpt lat="46.22002" lon="6.7628">
        <ele>1584</ele>
        <time>2016-08-02T08:04:38.000Z</time>
      </trkpt>
      <trkpt lat="46.2201" lon="6.76273">
        <ele>1581</ele>
        <time>2016-08-02T08:04:43.000Z</time>
      </trkpt>
      <trkpt lat="46.22015" lon="6.76262">
        <ele>1578</ele>
        <time>2016-08-02T08:04:51.000Z</time>
      </trkpt>
      <trkpt lat="46.22023" lon="6.76256">
        <ele>1575</ele>
        <time>2016-08-02T08:05:00.000Z</time>
      </trkpt>
      <trkpt lat="46.22028" lon="6.76242">
        <ele>1578</ele>
        <time>2016-08-02T08:05:06.000Z</time>
      </trkpt>
      <trkpt lat="46.22028" lon="6.76229">
        <ele>1583</ele>
        <time>2016-08-02T08:05:16.000Z</time>
      </trkpt>
      <trkpt lat="46.22025" lon="6.76215">
        <ele>1588</ele>
        <time>2016-08-02T08:05:25.000Z</time>
      </trkpt>
      <trkpt lat="46.2202" lon="6.76204">
        <ele>1590</ele>
        <time>2016-08-02T08:05:33.000Z</time>
      </trkpt>
      <trkpt lat="46.22015" lon="6.76192">
        <ele>1591</ele>
        <time>2016-08-02T08:05:41.000Z</time>
      </trkpt>
      <trkpt lat="46.22014" lon="6.76178">
        <ele>1587</ele>
        <time>2016-08-02T08:05:48.000Z</time>
      </trkpt>
      <trkpt lat="46.22018" lon="6.76165">
        <ele>1584</ele>
        <time>2016-08-02T08:05:55.000Z</time>
      </trkpt>
      <trkpt lat="46.22014" lon="6.76152">
        <ele>1587</ele>
        <time>2016-08-02T08:06:04.000Z</time>
      </trkpt>
      <trkpt lat="46.22013" lon="6.76139">
        <ele>1585</ele>
        <time>2016-08-02T08:06:10.000Z</time>
      </trkpt>
      <trkpt lat="46.22012" lon="6.76124">
        <ele>1587</ele>
        <time>2016-08-02T08:06:17.000Z</time>
      </trkpt>
      <trkpt lat="46.22015" lon="6.76111">
        <ele>1583</ele>
        <time>2016-08-02T08:06:25.000Z</time>
      </trkpt>
      <trkpt lat="46.22014" lon="6.76097">
        <ele>1590</ele>
        <time>2016-08-02T08:06:35.000Z</time>
      </trkpt>
      <trkpt lat="46.22017" lon="6.76085">
        <ele>1580</ele>
        <time>2016-08-02T08:06:39.000Z</time>
      </trkpt>
      <trkpt lat="46.22018" lon="6.76072">
        <ele>1587</ele>
        <time>2016-08-02T08:06:46.000Z</time>
      </trkpt>
      <trkpt lat="46.22022" lon="6.76057">
        <ele>1580</ele>
        <time>2016-08-02T08:06:56.000Z</time>
      </trkpt>
      <trkpt lat="46.2202" lon="6.76044">
        <ele>1583</ele>
        <time>2016-08-02T08:07:06.000Z</time>
      </trkpt>
      <trkpt lat="46.22023" lon="6.76032">
        <ele>1581</ele>
        <time>2016-08-02T08:07:16.000Z</time>
      </trkpt>
      <trkpt lat="46.22026" lon="6.76019">
        <ele>1587</ele>
        <time>2016-08-02T08:07:26.000Z</time>
      </trkpt>
      <trkpt lat="46.22028" lon="6.76006">
        <ele>1587</ele>
        <time>2016-08-02T08:07:32.000Z</time>
      </trkpt>
      <trkpt lat="46.22031" lon="6.75992">
        <ele>1589</ele>
        <time>2016-08-02T08:07:40.000Z</time>
      </trkpt>
      <trkpt lat="46.22034" lon="6.7598">
        <ele>1597</ele>
        <time>2016-08-02T08:07:52.000Z</time>
      </trkpt>
      <trkpt lat="46.22035" lon="6.75966">
        <ele>1595</ele>
        <time>2016-08-02T08:08:03.000Z</time>
      </trkpt>
      <trkpt lat="46.22036" lon="6.75953">
        <ele>1602</ele>
        <time>2016-08-02T08:08:21.000Z</time>
      </trkpt>
      <trkpt lat="46.22038" lon="6.7594">
        <ele>1598</ele>
        <time>2016-08-02T08:08:34.000Z</time>
      </trkpt>
      <trkpt lat="46.22039" lon="6.75927">
        <ele>1603</ele>
        <time>2016-08-02T08:08:46.000Z</time>
      </trkpt>
      <trkpt lat="46.22045" lon="6.75916">
        <ele>1603</ele>
        <time>2016-08-02T08:09:07.000Z</time>
      </trkpt>
      <trkpt lat="46.22049" lon="6.75903">
        <ele>1613</ele>
        <time>2016-08-02T08:09:26.000Z</time>
      </trkpt>
      <trkpt lat="46.22057" lon="6.75897">
        <ele>1610</ele>
        <time>2016-08-02T08:09:37.000Z</time>
      </trkpt>
      <trkpt lat="46.22063" lon="6.75884">
        <ele>1606</ele>
        <time>2016-08-02T08:09:53.000Z</time>
      </trkpt>
      <trkpt lat="46.22069" lon="6.7587">
        <ele>1623</ele>
        <time>2016-08-02T08:10:21.000Z</time>
      </trkpt>
      <trkpt lat="46.22075" lon="6.7586">
        <ele>1619</ele>
        <time>2016-08-02T08:10:30.000Z</time>
      </trkpt>
      <trkpt lat="46.22082" lon="6.75848">
        <ele>1615</ele>
        <time>2016-08-02T08:10:46.000Z</time>
      </trkpt>
      <trkpt lat="46.22091" lon="6.75845">
        <ele>1610</ele>
        <time>2016-08-02T08:10:57.000Z</time>
      </trkpt>
      <trkpt lat="46.22096" lon="6.75832">
        <ele>1614</ele>
        <time>2016-08-02T08:11:11.000Z</time>
      </trkpt>
      <trkpt lat="46.22102" lon="6.7582">
        <ele>1608</ele>
        <time>2016-08-02T08:11:19.000Z</time>
      </trkpt>
      <trkpt lat="46.22107" lon="6.75809">
        <ele>1610</ele>
        <time>2016-08-02T08:11:28.000Z</time>
      </trkpt>
      <trkpt lat="46.22115" lon="6.75801">
        <ele>1611</ele>
        <time>2016-08-02T08:11:39.000Z</time>
      </trkpt>
      <trkpt lat="46.22123" lon="6.75794">
        <ele>1605</ele>
        <time>2016-08-02T08:11:49.000Z</time>
      </trkpt>
      <trkpt lat="46.22131" lon="6.75788">
        <ele>1604</ele>
        <time>2016-08-02T08:11:58.000Z</time>
      </trkpt>
      <trkpt lat="46.22141" lon="6.75784">
        <ele>1605</ele>
        <time>2016-08-02T08:12:11.000Z</time>
      </trkpt>
      <trkpt lat="46.2215" lon="6.75783">
        <ele>1607</ele>
        <time>2016-08-02T08:12:23.000Z</time>
      </trkpt>
      <trkpt lat="46.22158" lon="6.75776">
        <ele>1607</ele>
        <time>2016-08-02T08:12:36.000Z</time>
      </trkpt>
      <trkpt lat="46.22162" lon="6.75763">
        <ele>1607</ele>
        <time>2016-08-02T08:12:48.000Z</time>
      </trkpt>
      <trkpt lat="46.22164" lon="6.75749">
        <ele>1620</ele>
        <time>2016-08-02T08:13:00.000Z</time>
      </trkpt>
      <trkpt lat="46.22171" lon="6.75741">
        <ele>1617</ele>
        <time>2016-08-02T08:13:09.000Z</time>
      </trkpt>
      <trkpt lat="46.22179" lon="6.75733">
        <ele>1618</ele>
        <time>2016-08-02T08:13:20.000Z</time>
      </trkpt>
      <trkpt lat="46.22187" lon="6.75726">
        <ele>1619</ele>
        <time>2016-08-02T08:13:32.000Z</time>
      </trkpt>
      <trkpt lat="46.22196" lon="6.75721">
        <ele>1614</ele>
        <time>2016-08-02T08:13:42.000Z</time>
      </trkpt>
      <trkpt lat="46.22207" lon="6.75718">
        <ele>1613</ele>
        <time>2016-08-02T08:13:54.000Z</time>
      </trkpt>
      <trkpt lat="46.22216" lon="6.7572">
        <ele>1613</ele>
        <time>2016-08-02T08:14:05.000Z</time>
      </trkpt>
      <trkpt lat="46.22225" lon="6.75724">
        <ele>1617</ele>
        <time>2016-08-02T08:15:13.000Z</time>
      </trkpt>
      <trkpt lat="46.22235" lon="6.75724">
        <ele>1626</ele>
        <time>2016-08-02T08:16:11.000Z</time>
      </trkpt>
      <trkpt lat="46.22244" lon="6.7573">
        <ele>1623</ele>
        <time>2016-08-02T08:16:26.000Z</time>
      </trkpt>
      <trkpt lat="46.22252" lon="6.75735">
        <ele>1623</ele>
        <time>2016-08-02T08:16:39.000Z</time>
      </trkpt>
      <trkpt lat="46.22261" lon="6.75737">
        <ele>1630</ele>
        <time>2016-08-02T08:17:05.000Z</time>
      </trkpt>
      <trkpt lat="46.22265" lon="6.75724">
        <ele>1630</ele>
        <time>2016-08-02T08:18:00.000Z</time>
      </trkpt>
      <trkpt lat="46.22274" lon="6.75719">
        <ele>1630</ele>
        <time>2016-08-02T08:18:15.000Z</time>
      </trkpt>
      <trkpt lat="46.2228" lon="6.75709">
        <ele>1636</ele>
        <time>2016-08-02T08:18:25.000Z</time>
      </trkpt>
      <trkpt lat="46.22285" lon="6.75697">
        <ele>1643</ele>
        <time>2016-08-02T08:18:43.000Z</time>
      </trkpt>
      <trkpt lat="46.2229" lon="6.75687">
        <ele>1644</ele>
        <time>2016-08-02T08:19:00.000Z</time>
      </trkpt>
      <trkpt lat="46.22299" lon="6.75682">
        <ele>1644</ele>
        <time>2016-08-02T08:19:12.000Z</time>
      </trkpt>
      <trkpt lat="46.22303" lon="6.7567">
        <ele>1646</ele>
        <time>2016-08-02T08:19:30.000Z</time>
      </trkpt>
      <trkpt lat="46.22313" lon="6.75668">
        <ele>1645</ele>
        <time>2016-08-02T08:19:48.000Z</time>
      </trkpt>
      <trkpt lat="46.22321" lon="6.75661">
        <ele>1653</ele>
        <time>2016-08-02T08:20:05.000Z</time>
      </trkpt>
      <trkpt lat="46.22331" lon="6.75664">
        <ele>1653</ele>
        <time>2016-08-02T08:20:23.000Z</time>
      </trkpt>
      <trkpt lat="46.2234" lon="6.75662">
        <ele>1654</ele>
        <time>2016-08-02T08:20:36.000Z</time>
      </trkpt>
      <trkpt lat="46.22345" lon="6.75651">
        <ele>1655</ele>
        <time>2016-08-02T08:20:51.000Z</time>
      </trkpt>
      <trkpt lat="46.22356" lon="6.75649">
        <ele>1656</ele>
        <time>2016-08-02T08:21:09.000Z</time>
      </trkpt>
      <trkpt lat="46.22363" lon="6.75639">
        <ele>1653</ele>
        <time>2016-08-02T08:21:27.000Z</time>
      </trkpt>
      <trkpt lat="46.22371" lon="6.75633">
        <ele>1660</ele>
        <time>2016-08-02T08:21:44.000Z</time>
      </trkpt>
      <trkpt lat="46.2238" lon="6.75631">
        <ele>1659</ele>
        <time>2016-08-02T08:21:55.000Z</time>
      </trkpt>
      <trkpt lat="46.22389" lon="6.75624">
        <ele>1663</ele>
        <time>2016-08-02T08:22:18.000Z</time>
      </trkpt>
      <trkpt lat="46.22392" lon="6.75612">
        <ele>1664</ele>
        <time>2016-08-02T08:22:44.000Z</time>
      </trkpt>
      <trkpt lat="46.22399" lon="6.75603">
        <ele>1664</ele>
        <time>2016-08-02T08:23:04.000Z</time>
      </trkpt>
      <trkpt lat="46.22403" lon="6.7559">
        <ele>1677</ele>
        <time>2016-08-02T08:23:26.000Z</time>
      </trkpt>
      <trkpt lat="46.22412" lon="6.75585">
        <ele>1679</ele>
        <time>2016-08-02T08:23:45.000Z</time>
      </trkpt>
      <trkpt lat="46.22419" lon="6.75577">
        <ele>1679</ele>
        <time>2016-08-02T08:24:21.000Z</time>
      </trkpt>
      <trkpt lat="46.22429" lon="6.75572">
        <ele>1682</ele>
        <time>2016-08-02T08:24:52.000Z</time>
      </trkpt>
      <trkpt lat="46.22434" lon="6.75561">
        <ele>1674</ele>
        <time>2016-08-02T08:25:09.000Z</time>
      </trkpt>
      <trkpt lat="46.22442" lon="6.75557">
        <ele>1681</ele>
        <time>2016-08-02T08:25:28.000Z</time>
      </trkpt>
      <trkpt lat="46.2245" lon="6.75548">
        <ele>1684</ele>
        <time>2016-08-02T08:26:02.000Z</time>
      </trkpt>
      <trkpt lat="46.22458" lon="6.75543">
        <ele>1683</ele>
        <time>2016-08-02T08:26:12.000Z</time>
      </trkpt>
      <trkpt lat="46.22468" lon="6.75543">
        <ele>1689</ele>
        <time>2016-08-02T08:26:29.000Z</time>
      </trkpt>
      <trkpt lat="46.22476" lon="6.75551">
        <ele>1683</ele>
        <time>2016-08-02T08:26:41.000Z</time>
      </trkpt>
      <trkpt lat="46.22484" lon="6.75557">
        <ele>1690</ele>
        <time>2016-08-02T08:26:51.000Z</time>
      </trkpt>
      <trkpt lat="46.22477" lon="6.75565">
        <ele>1692</ele>
        <time>2016-08-02T08:27:17.000Z</time>
      </trkpt>
      <trkpt lat="46.22486" lon="6.75564">
        <ele>1688</ele>
        <time>2016-08-02T08:27:44.000Z</time>
      </trkpt>
      <trkpt lat="46.22494" lon="6.7557">
        <ele>1693</ele>
        <time>2016-08-02T08:27:57.000Z</time>
      </trkpt>
      <trkpt lat="46.22503" lon="6.75573">
        <ele>1689</ele>
        <time>2016-08-02T08:28:07.000Z</time>
      </trkpt>
      <trkpt lat="46.22514" lon="6.75571">
        <ele>1692</ele>
        <time>2016-08-02T08:28:23.000Z</time>
      </trkpt>
      <trkpt lat="46.22522" lon="6.75564">
        <ele>1696</ele>
        <time>2016-08-02T08:28:38.000Z</time>
      </trkpt>
      <trkpt lat="46.22523" lon="6.75551">
        <ele>1699</ele>
        <time>2016-08-02T08:28:49.000Z</time>
      </trkpt>
      <trkpt lat="46.22529" lon="6.7554">
        <ele>1700</ele>
        <time>2016-08-02T08:29:01.000Z</time>
      </trkpt>
      <trkpt lat="46.22535" lon="6.75529">
        <ele>1697</ele>
        <time>2016-08-02T08:29:12.000Z</time>
      </trkpt>
      <trkpt lat="46.22542" lon="6.7552">
        <ele>1697</ele>
        <time>2016-08-02T08:29:23.000Z</time>
      </trkpt>
      <trkpt lat="46.22551" lon="6.75517">
        <ele>1704</ele>
        <time>2016-08-02T08:29:37.000Z</time>
      </trkpt>
      <trkpt lat="46.22559" lon="6.75508">
        <ele>1708</ele>
        <time>2016-08-02T08:29:50.000Z</time>
      </trkpt>
      <trkpt lat="46.22564" lon="6.75497">
        <ele>1708</ele>
        <time>2016-08-02T08:30:03.000Z</time>
      </trkpt>
      <trkpt lat="46.2257" lon="6.75487">
        <ele>1708</ele>
        <time>2016-08-02T08:30:15.000Z</time>
      </trkpt>
      <trkpt lat="46.2258" lon="6.75486">
        <ele>1716</ele>
        <time>2016-08-02T08:30:33.000Z</time>
      </trkpt>
      <trkpt lat="46.22589" lon="6.75486">
        <ele>1712</ele>
        <time>2016-08-02T08:30:45.000Z</time>
      </trkpt>
      <trkpt lat="46.22599" lon="6.75487">
        <ele>1708</ele>
        <time>2016-08-02T08:31:01.000Z</time>
      </trkpt>
      <trkpt lat="46.22609" lon="6.75484">
        <ele>1712</ele>
        <time>2016-08-02T08:31:22.000Z</time>
      </trkpt>
      <trkpt lat="46.22614" lon="6.75472">
        <ele>1712</ele>
        <time>2016-08-02T08:31:34.000Z</time>
      </trkpt>
      <trkpt lat="46.22623" lon="6.75466">
        <ele>1722</ele>
        <time>2016-08-02T08:32:01.000Z</time>
      </trkpt>
      <trkpt lat="46.22629" lon="6.75457">
        <ele>1723</ele>
        <time>2016-08-02T08:32:14.000Z</time>
      </trkpt>
      <trkpt lat="46.22637" lon="6.75451">
        <ele>1729</ele>
        <time>2016-08-02T08:32:25.000Z</time>
      </trkpt>
      <trkpt lat="46.22646" lon="6.75447">
        <ele>1727</ele>
        <time>2016-08-02T08:32:48.000Z</time>
      </trkpt>
      <trkpt lat="46.22652" lon="6.75437">
        <ele>1727</ele>
        <time>2016-08-02T08:33:02.000Z</time>
      </trkpt>
      <trkpt lat="46.2266" lon="6.7543">
        <ele>1729</ele>
        <time>2016-08-02T08:33:17.000Z</time>
      </trkpt>
      <trkpt lat="46.2267" lon="6.75423">
        <ele>1733</ele>
        <time>2016-08-02T08:33:36.000Z</time>
      </trkpt>
      <trkpt lat="46.22678" lon="6.75419">
        <ele>1736</ele>
        <time>2016-08-02T08:33:57.000Z</time>
      </trkpt>
      <trkpt lat="46.22687" lon="6.75418">
        <ele>1736</ele>
        <time>2016-08-02T08:34:18.000Z</time>
      </trkpt>
      <trkpt lat="46.22696" lon="6.75412">
        <ele>1739</ele>
        <time>2016-08-02T08:34:57.000Z</time>
      </trkpt>
      <trkpt lat="46.22704" lon="6.75417">
        <ele>1741</ele>
        <time>2016-08-02T08:35:21.000Z</time>
      </trkpt>
      <trkpt lat="46.2271" lon="6.75427">
        <ele>1741</ele>
        <time>2016-08-02T08:35:37.000Z</time>
      </trkpt>
      <trkpt lat="46.22718" lon="6.75435">
        <ele>1750</ele>
        <time>2016-08-02T08:36:13.000Z</time>
      </trkpt>
      <trkpt lat="46.22727" lon="6.75434">
        <ele>1758</ele>
        <time>2016-08-02T08:36:46.000Z</time>
      </trkpt>
      <trkpt lat="46.22735" lon="6.75425">
        <ele>1759</ele>
        <time>2016-08-02T08:36:59.000Z</time>
      </trkpt>
      <trkpt lat="46.22732" lon="6.75412">
        <ele>1762</ele>
        <time>2016-08-02T08:37:32.000Z</time>
      </trkpt>
      <trkpt lat="46.22734" lon="6.75397">
        <ele>1768</ele>
        <time>2016-08-02T08:37:51.000Z</time>
      </trkpt>
      <trkpt lat="46.22739" lon="6.75386">
        <ele>1765</ele>
        <time>2016-08-02T08:38:04.000Z</time>
      </trkpt>
      <trkpt lat="46.22742" lon="6.75371">
        <ele>1766</ele>
        <time>2016-08-02T08:38:26.000Z</time>
      </trkpt>
      <trkpt lat="46.22745" lon="6.75358">
        <ele>1771</ele>
        <time>2016-08-02T08:38:38.000Z</time>
      </trkpt>
      <trkpt lat="46.22753" lon="6.75351">
        <ele>1772</ele>
        <time>2016-08-02T08:39:38.000Z</time>
      </trkpt>
      <trkpt lat="46.22751" lon="6.75338">
        <ele>1768</ele>
        <time>2016-08-02T08:41:08.000Z</time>
      </trkpt>
      <trkpt lat="46.22758" lon="6.75329">
        <ele>1765</ele>
        <time>2016-08-02T08:41:20.000Z</time>
      </trkpt>
      <trkpt lat="46.22767" lon="6.75334">
        <ele>1781</ele>
        <time>2016-08-02T08:41:46.000Z</time>
      </trkpt>
      <trkpt lat="46.22776" lon="6.7534">
        <ele>1777</ele>
        <time>2016-08-02T08:41:59.000Z</time>
      </trkpt>
      <trkpt lat="46.22782" lon="6.75354">
        <ele>1776</ele>
        <time>2016-08-02T08:42:11.000Z</time>
      </trkpt>
      <trkpt lat="46.22789" lon="6.75363">
        <ele>1772</ele>
        <time>2016-08-02T08:42:19.000Z</time>
      </trkpt>
      <trkpt lat="46.22797" lon="6.7537">
        <ele>1774</ele>
        <time>2016-08-02T08:42:30.000Z</time>
      </trkpt>
      <trkpt lat="46.22805" lon="6.75377">
        <ele>1776</ele>
        <time>2016-08-02T08:42:44.000Z</time>
      </trkpt>
      <trkpt lat="46.22809" lon="6.75389">
        <ele>1781</ele>
        <time>2016-08-02T08:43:09.000Z</time>
      </trkpt>
      <trkpt lat="46.22815" lon="6.754">
        <ele>1784</ele>
        <time>2016-08-02T08:43:57.000Z</time>
      </trkpt>
      <trkpt lat="46.22825" lon="6.75398">
        <ele>1796</ele>
        <time>2016-08-02T08:44:25.000Z</time>
      </trkpt>
      <trkpt lat="46.22834" lon="6.75399">
        <ele>1801</ele>
        <time>2016-08-02T08:44:55.000Z</time>
      </trkpt>
      <trkpt lat="46.22842" lon="6.75392">
        <ele>1801</ele>
        <time>2016-08-02T08:45:38.000Z</time>
      </trkpt>
      <trkpt lat="46.22846" lon="6.7538">
        <ele>1806</ele>
        <time>2016-08-02T08:45:51.000Z</time>
      </trkpt>
      <trkpt lat="46.22852" lon="6.75369">
        <ele>1802</ele>
        <time>2016-08-02T08:46:16.000Z</time>
      </trkpt>
      <trkpt lat="46.22858" lon="6.75359">
        <ele>1808</ele>
        <time>2016-08-02T08:46:29.000Z</time>
      </trkpt>
      <trkpt lat="46.22858" lon="6.75346">
        <ele>1818</ele>
        <time>2016-08-02T08:46:52.000Z</time>
      </trkpt>
      <trkpt lat="46.22865" lon="6.75338">
        <ele>1817</ele>
        <time>2016-08-02T08:47:10.000Z</time>
      </trkpt>
      <trkpt lat="46.22866" lon="6.75323">
        <ele>1817</ele>
        <time>2016-08-02T08:47:21.000Z</time>
      </trkpt>
      <trkpt lat="46.22871" lon="6.75312">
        <ele>1814</ele>
        <time>2016-08-02T08:47:29.000Z</time>
      </trkpt>
      <trkpt lat="46.2287" lon="6.75299">
        <ele>1818</ele>
        <time>2016-08-02T08:47:47.000Z</time>
      </trkpt>
      <trkpt lat="46.22873" lon="6.75286">
        <ele>1816</ele>
        <time>2016-08-02T08:48:08.000Z</time>
      </trkpt>
      <trkpt lat="46.22873" lon="6.75273">
        <ele>1824</ele>
        <time>2016-08-02T08:48:40.000Z</time>
      </trkpt>
      <trkpt lat="46.2288" lon="6.7526">
        <ele>1824</ele>
        <time>2016-08-02T08:49:05.000Z</time>
      </trkpt>
      <trkpt lat="46.22883" lon="6.75247">
        <ele>1825</ele>
        <time>2016-08-02T08:49:18.000Z</time>
      </trkpt>
      <trkpt lat="46.22888" lon="6.75236">
        <ele>1826</ele>
        <time>2016-08-02T08:49:35.000Z</time>
      </trkpt>
      <trkpt lat="46.22892" lon="6.75223">
        <ele>1827</ele>
        <time>2016-08-02T08:49:54.000Z</time>
      </trkpt>
      <trkpt lat="46.22896" lon="6.7521">
        <ele>1834</ele>
        <time>2016-08-02T08:50:26.000Z</time>
      </trkpt>
      <trkpt lat="46.22902" lon="6.75199">
        <ele>1834</ele>
        <time>2016-08-02T08:51:13.000Z</time>
      </trkpt>
      <trkpt lat="46.22904" lon="6.75185">
        <ele>1843</ele>
        <time>2016-08-02T08:51:48.000Z</time>
      </trkpt>
      <trkpt lat="46.22908" lon="6.75173">
        <ele>1842</ele>
        <time>2016-08-02T08:52:00.000Z</time>
      </trkpt>
      <trkpt lat="46.22911" lon="6.75159">
        <ele>1846</ele>
        <time>2016-08-02T08:52:13.000Z</time>
      </trkpt>
      <trkpt lat="46.22912" lon="6.75146">
        <ele>1852</ele>
        <time>2016-08-02T08:52:33.000Z</time>
      </trkpt>
      <trkpt lat="46.22919" lon="6.75134">
        <ele>1847</ele>
        <time>2016-08-02T08:52:44.000Z</time>
      </trkpt>
      <trkpt lat="46.22917" lon="6.75122">
        <ele>1851</ele>
        <time>2016-08-02T08:53:25.000Z</time>
      </trkpt>
      <trkpt lat="46.22924" lon="6.75113">
        <ele>1851</ele>
        <time>2016-08-02T08:53:41.000Z</time>
      </trkpt>
      <trkpt lat="46.22931" lon="6.75123">
        <ele>1854</ele>
        <time>2016-08-02T08:54:16.000Z</time>
      </trkpt>
      <trkpt lat="46.22941" lon="6.75127">
        <ele>1862</ele>
        <time>2016-08-02T08:54:34.000Z</time>
      </trkpt>
      <trkpt lat="46.22945" lon="6.75142">
        <ele>1860</ele>
        <time>2016-08-02T08:55:03.000Z</time>
      </trkpt>
      <trkpt lat="46.22954" lon="6.75149">
        <ele>1863</ele>
        <time>2016-08-02T08:55:14.000Z</time>
      </trkpt>
      <trkpt lat="46.22959" lon="6.75163">
        <ele>1862</ele>
        <time>2016-08-02T08:55:24.000Z</time>
      </trkpt>
      <trkpt lat="46.22965" lon="6.75175">
        <ele>1859</ele>
        <time>2016-08-02T08:55:36.000Z</time>
      </trkpt>
      <trkpt lat="46.22974" lon="6.7518">
        <ele>1864</ele>
        <time>2016-08-02T08:55:52.000Z</time>
      </trkpt>
      <trkpt lat="46.22985" lon="6.75181">
        <ele>1866</ele>
        <time>2016-08-02T08:56:05.000Z</time>
      </trkpt>
      <trkpt lat="46.22992" lon="6.7519">
        <ele>1853</ele>
        <time>2016-08-02T08:57:35.000Z</time>
      </trkpt>
      <trkpt lat="46.22982" lon="6.75187">
        <ele>1858</ele>
        <time>2016-08-02T08:57:58.000Z</time>
      </trkpt>
      <trkpt lat="46.22973" lon="6.75191">
        <ele>1856</ele>
        <time>2016-08-02T08:58:09.000Z</time>
      </trkpt>
      <trkpt lat="46.22968" lon="6.75203">
        <ele>1854</ele>
        <time>2016-08-02T08:58:20.000Z</time>
      </trkpt>
      <trkpt lat="46.22971" lon="6.75216">
        <ele>1859</ele>
        <time>2016-08-02T08:58:30.000Z</time>
      </trkpt>
      <trkpt lat="46.22972" lon="6.7523">
        <ele>1840</ele>
        <time>2016-08-02T08:58:41.000Z</time>
      </trkpt>
      <trkpt lat="46.22961" lon="6.75229">
        <ele>1845</ele>
        <time>2016-08-02T08:58:58.000Z</time>
      </trkpt>
      <trkpt lat="46.22968" lon="6.75238">
        <ele>1854</ele>
        <time>2016-08-02T08:59:08.000Z</time>
      </trkpt>
      <trkpt lat="46.2297" lon="6.75251">
        <ele>1857</ele>
        <time>2016-08-02T08:59:18.000Z</time>
      </trkpt>
      <trkpt lat="46.22969" lon="6.75264">
        <ele>1861</ele>
        <time>2016-08-02T08:59:29.000Z</time>
      </trkpt>
      <trkpt lat="46.22966" lon="6.75279">
        <ele>1856</ele>
        <time>2016-08-02T09:01:31.000Z</time>
      </trkpt>
      <trkpt lat="46.22969" lon="6.75292">
        <ele>1866</ele>
        <time>2016-08-02T09:02:11.000Z</time>
      </trkpt>
      <trkpt lat="46.2297" lon="6.75305">
        <ele>1868</ele>
        <time>2016-08-02T09:02:24.000Z</time>
      </trkpt>
      <trkpt lat="46.22971" lon="6.75319">
        <ele>1868</ele>
        <time>2016-08-02T09:02:34.000Z</time>
      </trkpt>
      <trkpt lat="46.22975" lon="6.75331">
        <ele>1871</ele>
        <time>2016-08-02T09:02:45.000Z</time>
      </trkpt>
      <trkpt lat="46.22976" lon="6.75345">
        <ele>1875</ele>
        <time>2016-08-02T09:02:54.000Z</time>
      </trkpt>
      <trkpt lat="46.22973" lon="6.75358">
        <ele>1873</ele>
        <time>2016-08-02T09:03:07.000Z</time>
      </trkpt>
      <trkpt lat="46.22971" lon="6.75372">
        <ele>1877</ele>
        <time>2016-08-02T09:03:56.000Z</time>
      </trkpt>
      <trkpt lat="46.22974" lon="6.75386">
        <ele>1875</ele>
        <time>2016-08-02T09:04:14.000Z</time>
      </trkpt>
      <trkpt lat="46.22972" lon="6.75401">
        <ele>1873</ele>
        <time>2016-08-02T09:04:27.000Z</time>
      </trkpt>
      <trkpt lat="46.22973" lon="6.75414">
        <ele>1873</ele>
        <time>2016-08-02T09:04:34.000Z</time>
      </trkpt>
      <trkpt lat="46.22976" lon="6.75427">
        <ele>1876</ele>
        <time>2016-08-02T09:04:46.000Z</time>
      </trkpt>
      <trkpt lat="46.22981" lon="6.75437">
        <ele>1879</ele>
        <time>2016-08-02T09:04:55.000Z</time>
      </trkpt>
      <trkpt lat="46.22987" lon="6.75449">
        <ele>1879</ele>
        <time>2016-08-02T09:05:06.000Z</time>
      </trkpt>
      <trkpt lat="46.22984" lon="6.75462">
        <ele>1888</ele>
        <time>2016-08-02T09:05:34.000Z</time>
      </trkpt>
      <trkpt lat="46.22991" lon="6.75472">
        <ele>1889</ele>
        <time>2016-08-02T09:05:56.000Z</time>
      </trkpt>
      <trkpt lat="46.22985" lon="6.75482">
        <ele>1891</ele>
        <time>2016-08-02T09:06:10.000Z</time>
      </trkpt>
      <trkpt lat="46.22982" lon="6.75496">
        <ele>1897</ele>
        <time>2016-08-02T09:06:40.000Z</time>
      </trkpt>
      <trkpt lat="46.22977" lon="6.75507">
        <ele>1897</ele>
        <time>2016-08-02T09:06:49.000Z</time>
      </trkpt>
      <trkpt lat="46.22978" lon="6.7552">
        <ele>1895</ele>
        <time>2016-08-02T09:07:04.000Z</time>
      </trkpt>
      <trkpt lat="46.22978" lon="6.75533">
        <ele>1900</ele>
        <time>2016-08-02T09:07:28.000Z</time>
      </trkpt>
      <trkpt lat="46.22977" lon="6.75547">
        <ele>1901</ele>
        <time>2016-08-02T09:07:47.000Z</time>
      </trkpt>
      <trkpt lat="46.22975" lon="6.75562">
        <ele>1902</ele>
        <time>2016-08-02T09:08:03.000Z</time>
      </trkpt>
      <trkpt lat="46.22971" lon="6.75574">
        <ele>1903</ele>
        <time>2016-08-02T09:09:07.000Z</time>
      </trkpt>
      <trkpt lat="46.22969" lon="6.75587">
        <ele>1903</ele>
        <time>2016-08-02T09:09:23.000Z</time>
      </trkpt>
      <trkpt lat="46.22972" lon="6.756">
        <ele>1906</ele>
        <time>2016-08-02T09:09:45.000Z</time>
      </trkpt>
      <trkpt lat="46.22971" lon="6.75613">
        <ele>1912</ele>
        <time>2016-08-02T09:10:01.000Z</time>
      </trkpt>
      <trkpt lat="46.22962" lon="6.75623">
        <ele>1908</ele>
        <time>2016-08-02T09:17:10.000Z</time>
      </trkpt>
      <trkpt lat="46.2296" lon="6.75636">
        <ele>1900</ele>
        <time>2016-08-02T09:17:30.000Z</time>
      </trkpt>
      <trkpt lat="46.22953" lon="6.7565">
        <ele>1899</ele>
        <time>2016-08-02T09:17:38.000Z</time>
      </trkpt>
      <trkpt lat="46.22948" lon="6.75661">
        <ele>1898</ele>
        <time>2016-08-02T09:18:11.000Z</time>
      </trkpt>
      <trkpt lat="46.22937" lon="6.75663">
        <ele>1892</ele>
        <time>2016-08-02T09:18:43.000Z</time>
      </trkpt>
      <trkpt lat="46.22934" lon="6.75677">
        <ele>1887</ele>
        <time>2016-08-02T09:19:03.000Z</time>
      </trkpt>
      <trkpt lat="46.22933" lon="6.7569">
        <ele>1893</ele>
        <time>2016-08-02T09:19:21.000Z</time>
      </trkpt>
      <trkpt lat="46.22925" lon="6.75698">
        <ele>1888</ele>
        <time>2016-08-02T09:19:30.000Z</time>
      </trkpt>
      <trkpt lat="46.22916" lon="6.75702">
        <ele>1887</ele>
        <time>2016-08-02T09:20:04.000Z</time>
      </trkpt>
      <trkpt lat="46.22908" lon="6.75712">
        <ele>1887</ele>
        <time>2016-08-02T09:20:15.000Z</time>
      </trkpt>
      <trkpt lat="46.22904" lon="6.75723">
        <ele>1888</ele>
        <time>2016-08-02T09:20:25.000Z</time>
      </trkpt>
      <trkpt lat="46.22901" lon="6.75737">
        <ele>1886</ele>
        <time>2016-08-02T09:20:37.000Z</time>
      </trkpt>
      <trkpt lat="46.22896" lon="6.75748">
        <ele>1886</ele>
        <time>2016-08-02T09:20:48.000Z</time>
      </trkpt>
      <trkpt lat="46.22887" lon="6.75749">
        <ele>1878</ele>
        <time>2016-08-02T09:20:57.000Z</time>
      </trkpt>
      <trkpt lat="46.22878" lon="6.7575">
        <ele>1871</ele>
        <time>2016-08-02T09:21:35.000Z</time>
      </trkpt>
      <trkpt lat="46.22872" lon="6.7576">
        <ele>1871</ele>
        <time>2016-08-02T09:21:44.000Z</time>
      </trkpt>
      <trkpt lat="46.22863" lon="6.75762">
        <ele>1869</ele>
        <time>2016-08-02T09:22:26.000Z</time>
      </trkpt>
      <trkpt lat="46.22855" lon="6.7577">
        <ele>1864</ele>
        <time>2016-08-02T09:22:36.000Z</time>
      </trkpt>
      <trkpt lat="46.22845" lon="6.75779">
        <ele>1856</ele>
        <time>2016-08-02T09:23:02.000Z</time>
      </trkpt>
      <trkpt lat="46.22837" lon="6.75787">
        <ele>1857</ele>
        <time>2016-08-02T09:23:35.000Z</time>
      </trkpt>
      <trkpt lat="46.22829" lon="6.75792">
        <ele>1853</ele>
        <time>2016-08-02T09:23:43.000Z</time>
      </trkpt>
      <trkpt lat="46.22819" lon="6.75794">
        <ele>1850</ele>
        <time>2016-08-02T09:24:10.000Z</time>
      </trkpt>
      <trkpt lat="46.22809" lon="6.75797">
        <ele>1849</ele>
        <time>2016-08-02T09:24:28.000Z</time>
      </trkpt>
      <trkpt lat="46.22804" lon="6.75809">
        <ele>1844</ele>
        <time>2016-08-02T09:24:39.000Z</time>
      </trkpt>
      <trkpt lat="46.22797" lon="6.75816">
        <ele>1842</ele>
        <time>2016-08-02T09:25:06.000Z</time>
      </trkpt>
      <trkpt lat="46.22791" lon="6.75826">
        <ele>1843</ele>
        <time>2016-08-02T09:25:21.000Z</time>
      </trkpt>
      <trkpt lat="46.22783" lon="6.75834">
        <ele>1842</ele>
        <time>2016-08-02T09:25:33.000Z</time>
      </trkpt>
      <trkpt lat="46.22774" lon="6.75839">
        <ele>1842</ele>
        <time>2016-08-02T09:25:45.000Z</time>
      </trkpt>
      <trkpt lat="46.22767" lon="6.75849">
        <ele>1845</ele>
        <time>2016-08-02T09:26:01.000Z</time>
      </trkpt>
      <trkpt lat="46.22759" lon="6.75855">
        <ele>1844</ele>
        <time>2016-08-02T09:26:10.000Z</time>
      </trkpt>
      <trkpt lat="46.2275" lon="6.75861">
        <ele>1840</ele>
        <time>2016-08-02T09:26:17.000Z</time>
      </trkpt>
      <trkpt lat="46.22745" lon="6.75874">
        <ele>1842</ele>
        <time>2016-08-02T09:26:26.000Z</time>
      </trkpt>
      <trkpt lat="46.22738" lon="6.75884">
        <ele>1842</ele>
        <time>2016-08-02T09:26:39.000Z</time>
      </trkpt>
      <trkpt lat="46.22732" lon="6.75894">
        <ele>1842</ele>
        <time>2016-08-02T09:26:52.000Z</time>
      </trkpt>
      <trkpt lat="46.22726" lon="6.75903">
        <ele>1841</ele>
        <time>2016-08-02T09:27:01.000Z</time>
      </trkpt>
      <trkpt lat="46.22721" lon="6.75917">
        <ele>1844</ele>
        <time>2016-08-02T09:27:12.000Z</time>
      </trkpt>
      <trkpt lat="46.2272" lon="6.7593">
        <ele>1843</ele>
        <time>2016-08-02T09:27:22.000Z</time>
      </trkpt>
      <trkpt lat="46.22715" lon="6.75944">
        <ele>1843</ele>
        <time>2016-08-02T09:27:34.000Z</time>
      </trkpt>
      <trkpt lat="46.22706" lon="6.75953">
        <ele>1840</ele>
        <time>2016-08-02T09:27:42.000Z</time>
      </trkpt>
      <trkpt lat="46.22701" lon="6.75967">
        <ele>1840</ele>
        <time>2016-08-02T09:27:52.000Z</time>
      </trkpt>
      <trkpt lat="46.22698" lon="6.75979">
        <ele>1844</ele>
        <time>2016-08-02T09:28:08.000Z</time>
      </trkpt>
      <trkpt lat="46.22689" lon="6.75986">
        <ele>1838</ele>
        <time>2016-08-02T09:28:22.000Z</time>
      </trkpt>
      <trkpt lat="46.22689" lon="6.76">
        <ele>1839</ele>
        <time>2016-08-02T09:28:33.000Z</time>
      </trkpt>
      <trkpt lat="46.22685" lon="6.76012">
        <ele>1841</ele>
        <time>2016-08-02T09:28:45.000Z</time>
      </trkpt>
      <trkpt lat="46.22678" lon="6.76023">
        <ele>1838</ele>
        <time>2016-08-02T09:28:54.000Z</time>
      </trkpt>
      <trkpt lat="46.22673" lon="6.76034">
        <ele>1834</ele>
        <time>2016-08-02T09:29:04.000Z</time>
      </trkpt>
      <trkpt lat="46.22673" lon="6.76047">
        <ele>1836</ele>
        <time>2016-08-02T09:29:13.000Z</time>
      </trkpt>
      <trkpt lat="46.22671" lon="6.76062">
        <ele>1836</ele>
        <time>2016-08-02T09:29:22.000Z</time>
      </trkpt>
      <trkpt lat="46.22669" lon="6.76075">
        <ele>1836</ele>
        <time>2016-08-02T09:29:30.000Z</time>
      </trkpt>
      <trkpt lat="46.22664" lon="6.76086">
        <ele>1836</ele>
        <time>2016-08-02T09:29:40.000Z</time>
      </trkpt>
      <trkpt lat="46.22661" lon="6.76099">
        <ele>1838</ele>
        <time>2016-08-02T09:29:51.000Z</time>
      </trkpt>
      <trkpt lat="46.22656" lon="6.7611">
        <ele>1838</ele>
        <time>2016-08-02T09:30:02.000Z</time>
      </trkpt>
      <trkpt lat="46.22654" lon="6.76123">
        <ele>1839</ele>
        <time>2016-08-02T09:30:15.000Z</time>
      </trkpt>
      <trkpt lat="46.22646" lon="6.76132">
        <ele>1839</ele>
        <time>2016-08-02T09:30:25.000Z</time>
      </trkpt>
      <trkpt lat="46.22637" lon="6.76136">
        <ele>1835</ele>
        <time>2016-08-02T09:30:33.000Z</time>
      </trkpt>
      <trkpt lat="46.22634" lon="6.7615">
        <ele>1837</ele>
        <time>2016-08-02T09:30:45.000Z</time>
      </trkpt>
      <trkpt lat="46.22625" lon="6.76155">
        <ele>1833</ele>
        <time>2016-08-02T09:30:53.000Z</time>
      </trkpt>
      <trkpt lat="46.22617" lon="6.76165">
        <ele>1837</ele>
        <time>2016-08-02T09:31:00.000Z</time>
      </trkpt>
      <trkpt lat="46.2261" lon="6.76177">
        <ele>1840</ele>
        <time>2016-08-02T09:31:11.000Z</time>
      </trkpt>
      <trkpt lat="46.22604" lon="6.76189">
        <ele>1839</ele>
        <time>2016-08-02T09:31:19.000Z</time>
      </trkpt>
      <trkpt lat="46.22601" lon="6.76203">
        <ele>1839</ele>
        <time>2016-08-02T09:31:29.000Z</time>
      </trkpt>
      <trkpt lat="46.22595" lon="6.76216">
        <ele>1836</ele>
        <time>2016-08-02T09:31:40.000Z</time>
      </trkpt>
      <trkpt lat="46.22595" lon="6.76229">
        <ele>1839</ele>
        <time>2016-08-02T09:31:54.000Z</time>
      </trkpt>
      <trkpt lat="46.22588" lon="6.76237">
        <ele>1841</ele>
        <time>2016-08-02T09:31:59.000Z</time>
      </trkpt>
      <trkpt lat="46.22584" lon="6.76251">
        <ele>1841</ele>
        <time>2016-08-02T09:32:07.000Z</time>
      </trkpt>
      <trkpt lat="46.22587" lon="6.76266">
        <ele>1839</ele>
        <time>2016-08-02T09:32:19.000Z</time>
      </trkpt>
      <trkpt lat="46.22591" lon="6.76279">
        <ele>1842</ele>
        <time>2016-08-02T09:32:26.000Z</time>
      </trkpt>
      <trkpt lat="46.22585" lon="6.76289">
        <ele>1842</ele>
        <time>2016-08-02T09:32:35.000Z</time>
      </trkpt>
      <trkpt lat="46.2259" lon="6.76302">
        <ele>1841</ele>
        <time>2016-08-02T09:32:44.000Z</time>
      </trkpt>
      <trkpt lat="46.22587" lon="6.76315">
        <ele>1836</ele>
        <time>2016-08-02T09:32:49.000Z</time>
      </trkpt>
      <trkpt lat="46.2259" lon="6.76329">
        <ele>1840</ele>
        <time>2016-08-02T09:33:01.000Z</time>
      </trkpt>
      <trkpt lat="46.22589" lon="6.76342">
        <ele>1841</ele>
        <time>2016-08-02T09:33:11.000Z</time>
      </trkpt>
      <trkpt lat="46.22593" lon="6.76354">
        <ele>1849</ele>
        <time>2016-08-02T09:33:22.000Z</time>
      </trkpt>
      <trkpt lat="46.22587" lon="6.76367">
        <ele>1845</ele>
        <time>2016-08-02T09:33:32.000Z</time>
      </trkpt>
      <trkpt lat="46.22586" lon="6.76381">
        <ele>1849</ele>
        <time>2016-08-02T09:33:48.000Z</time>
      </trkpt>
      <trkpt lat="46.22591" lon="6.76393">
        <ele>1848</ele>
        <time>2016-08-02T09:34:11.000Z</time>
      </trkpt>
      <trkpt lat="46.22591" lon="6.76406">
        <ele>1844</ele>
        <time>2016-08-02T09:34:29.000Z</time>
      </trkpt>
      <trkpt lat="46.22591" lon="6.7642">
        <ele>1852</ele>
        <time>2016-08-02T09:34:41.000Z</time>
      </trkpt>
      <trkpt lat="46.2259" lon="6.76434">
        <ele>1854</ele>
        <time>2016-08-02T09:35:08.000Z</time>
      </trkpt>
      <trkpt lat="46.22588" lon="6.76446">
        <ele>1850</ele>
        <time>2016-08-02T09:35:16.000Z</time>
      </trkpt>
      <trkpt lat="46.22595" lon="6.76456">
        <ele>1849</ele>
        <time>2016-08-02T09:35:29.000Z</time>
      </trkpt>
      <trkpt lat="46.22587" lon="6.76462">
        <ele>1851</ele>
        <time>2016-08-02T09:35:37.000Z</time>
      </trkpt>
      <trkpt lat="46.22584" lon="6.76476">
        <ele>1853</ele>
        <time>2016-08-02T09:35:55.000Z</time>
      </trkpt>
      <trkpt lat="46.22586" lon="6.76489">
        <ele>1856</ele>
        <time>2016-08-02T09:36:04.000Z</time>
      </trkpt>
      <trkpt lat="46.22589" lon="6.76502">
        <ele>1859</ele>
        <time>2016-08-02T09:36:34.000Z</time>
      </trkpt>
      <trkpt lat="46.22593" lon="6.76514">
        <ele>1857</ele>
        <time>2016-08-02T09:36:44.000Z</time>
      </trkpt>
      <trkpt lat="46.22591" lon="6.76529">
        <ele>1859</ele>
        <time>2016-08-02T09:36:56.000Z</time>
      </trkpt>
      <trkpt lat="46.22583" lon="6.76541">
        <ele>1857</ele>
        <time>2016-08-02T09:37:03.000Z</time>
      </trkpt>
      <trkpt lat="46.22581" lon="6.76554">
        <ele>1861</ele>
        <time>2016-08-02T09:37:18.000Z</time>
      </trkpt>
      <trkpt lat="46.22578" lon="6.76567">
        <ele>1860</ele>
        <time>2016-08-02T09:37:31.000Z</time>
      </trkpt>
      <trkpt lat="46.22572" lon="6.76578">
        <ele>1858</ele>
        <time>2016-08-02T09:37:43.000Z</time>
      </trkpt>
      <trkpt lat="46.22568" lon="6.7659">
        <ele>1863</ele>
        <time>2016-08-02T09:38:05.000Z</time>
      </trkpt>
      <trkpt lat="46.22566" lon="6.76604">
        <ele>1862</ele>
        <time>2016-08-02T09:38:19.000Z</time>
      </trkpt>
      <trkpt lat="46.22562" lon="6.76616">
        <ele>1862</ele>
        <time>2016-08-02T09:38:30.000Z</time>
      </trkpt>
      <trkpt lat="46.22559" lon="6.76629">
        <ele>1860</ele>
        <time>2016-08-02T09:38:39.000Z</time>
      </trkpt>
      <trkpt lat="46.22555" lon="6.76641">
        <ele>1857</ele>
        <time>2016-08-02T09:38:52.000Z</time>
      </trkpt>
      <trkpt lat="46.22559" lon="6.76654">
        <ele>1866</ele>
        <time>2016-08-02T09:39:14.000Z</time>
      </trkpt>
      <trkpt lat="46.22555" lon="6.76666">
        <ele>1871</ele>
        <time>2016-08-02T09:39:46.000Z</time>
      </trkpt>
      <trkpt lat="46.22555" lon="6.7668">
        <ele>1865</ele>
        <time>2016-08-02T09:39:57.000Z</time>
      </trkpt>
      <trkpt lat="46.22559" lon="6.76692">
        <ele>1864</ele>
        <time>2016-08-02T09:40:22.000Z</time>
      </trkpt>
      <trkpt lat="46.22562" lon="6.76705">
        <ele>1864</ele>
        <time>2016-08-02T09:41:24.000Z</time>
      </trkpt>
      <trkpt lat="46.22569" lon="6.76714">
        <ele>1865</ele>
        <time>2016-08-02T09:41:36.000Z</time>
      </trkpt>
      <trkpt lat="46.22567" lon="6.76727">
        <ele>1869</ele>
        <time>2016-08-02T09:41:48.000Z</time>
      </trkpt>
      <trkpt lat="46.22565" lon="6.7674">
        <ele>1869</ele>
        <time>2016-08-02T09:41:57.000Z</time>
      </trkpt>
      <trkpt lat="46.2257" lon="6.76751">
        <ele>1872</ele>
        <time>2016-08-02T09:42:15.000Z</time>
      </trkpt>
      <trkpt lat="46.2258" lon="6.76759">
        <ele>1876</ele>
        <time>2016-08-02T09:42:33.000Z</time>
      </trkpt>
      <trkpt lat="46.22582" lon="6.76775">
        <ele>1870</ele>
        <time>2016-08-02T09:42:50.000Z</time>
      </trkpt>
      <trkpt lat="46.22591" lon="6.7678">
        <ele>1870</ele>
        <time>2016-08-02T09:43:07.000Z</time>
      </trkpt>
      <trkpt lat="46.22599" lon="6.76788">
        <ele>1874</ele>
        <time>2016-08-02T09:43:23.000Z</time>
      </trkpt>
      <trkpt lat="46.22595" lon="6.768">
        <ele>1874</ele>
        <time>2016-08-02T09:45:32.000Z</time>
      </trkpt>
      <trkpt lat="46.22598" lon="6.76812">
        <ele>1881</ele>
        <time>2016-08-02T09:45:51.000Z</time>
      </trkpt>
      <trkpt lat="46.22596" lon="6.76825">
        <ele>1884</ele>
        <time>2016-08-02T09:46:04.000Z</time>
      </trkpt>
      <trkpt lat="46.22587" lon="6.76831">
        <ele>1880</ele>
        <time>2016-08-02T09:46:13.000Z</time>
      </trkpt>
      <trkpt lat="46.22579" lon="6.76838">
        <ele>1877</ele>
        <time>2016-08-02T09:46:18.000Z</time>
      </trkpt>
      <trkpt lat="46.22569" lon="6.76839">
        <ele>1872</ele>
        <time>2016-08-02T09:46:28.000Z</time>
      </trkpt>
      <trkpt lat="46.2256" lon="6.76847">
        <ele>1864</ele>
        <time>2016-08-02T09:46:54.000Z</time>
      </trkpt>
      <trkpt lat="46.22569" lon="6.76851">
        <ele>1874</ele>
        <time>2016-08-02T09:47:58.000Z</time>
      </trkpt>
      <trkpt lat="46.22559" lon="6.76852">
        <ele>1869</ele>
        <time>2016-08-02T09:48:08.000Z</time>
      </trkpt>
      <trkpt lat="46.22551" lon="6.76845">
        <ele>1861</ele>
        <time>2016-08-02T09:48:15.000Z</time>
      </trkpt>
      <trkpt lat="46.22543" lon="6.76852">
        <ele>1855</ele>
        <time>2016-08-02T09:48:41.000Z</time>
      </trkpt>
      <trkpt lat="46.22542" lon="6.76866">
        <ele>1863</ele>
        <time>2016-08-02T09:48:57.000Z</time>
      </trkpt>
      <trkpt lat="46.22534" lon="6.76872">
        <ele>1858</ele>
        <time>2016-08-02T09:51:24.000Z</time>
      </trkpt>
      <trkpt lat="46.22525" lon="6.76878">
        <ele>1855</ele>
        <time>2016-08-02T09:51:30.000Z</time>
      </trkpt>
      <trkpt lat="46.22521" lon="6.7689">
        <ele>1860</ele>
        <time>2016-08-02T09:51:47.000Z</time>
      </trkpt>
      <trkpt lat="46.22514" lon="6.76901">
        <ele>1860</ele>
        <time>2016-08-02T09:51:56.000Z</time>
      </trkpt>
      <trkpt lat="46.22505" lon="6.76904">
        <ele>1860</ele>
        <time>2016-08-02T09:52:02.000Z</time>
      </trkpt>
      <trkpt lat="46.22496" lon="6.76909">
        <ele>1860</ele>
        <time>2016-08-02T09:56:41.000Z</time>
      </trkpt>
      <trkpt lat="46.22487" lon="6.76914">
        <ele>1861</ele>
        <time>2016-08-02T09:56:48.000Z</time>
      </trkpt>
      <trkpt lat="46.22479" lon="6.76923">
        <ele>1862</ele>
        <time>2016-08-02T09:56:59.000Z</time>
      </trkpt>
      <trkpt lat="46.2247" lon="6.76929">
        <ele>1862</ele>
        <time>2016-08-02T09:57:08.000Z</time>
      </trkpt>
      <trkpt lat="46.22463" lon="6.76938">
        <ele>1863</ele>
        <time>2016-08-02T09:57:16.000Z</time>
      </trkpt>
      <trkpt lat="46.22456" lon="6.76947">
        <ele>1863</ele>
        <time>2016-08-02T09:57:25.000Z</time>
      </trkpt>
      <trkpt lat="46.22447" lon="6.76951">
        <ele>1861</ele>
        <time>2016-08-02T09:57:33.000Z</time>
      </trkpt>
      <trkpt lat="46.22442" lon="6.76963">
        <ele>1863</ele>
        <time>2016-08-02T09:58:12.000Z</time>
      </trkpt>
      <trkpt lat="46.22433" lon="6.76963">
        <ele>1860</ele>
        <time>2016-08-02T09:58:21.000Z</time>
      </trkpt>
      <trkpt lat="46.22425" lon="6.76971">
        <ele>1862</ele>
        <time>2016-08-02T09:58:28.000Z</time>
      </trkpt>
      <trkpt lat="46.22419" lon="6.76981">
        <ele>1864</ele>
        <time>2016-08-02T09:59:01.000Z</time>
      </trkpt>
      <trkpt lat="46.22409" lon="6.7698">
        <ele>1869</ele>
        <time>2016-08-02T10:01:49.000Z</time>
      </trkpt>
      <trkpt lat="46.22403" lon="6.76992">
        <ele>1866</ele>
        <time>2016-08-02T10:01:58.000Z</time>
      </trkpt>
      <trkpt lat="46.22395" lon="6.77001">
        <ele>1864</ele>
        <time>2016-08-02T10:02:04.000Z</time>
      </trkpt>
      <trkpt lat="46.22392" lon="6.77014">
        <ele>1863</ele>
        <time>2016-08-02T10:02:19.000Z</time>
      </trkpt>
      <trkpt lat="46.22385" lon="6.77023">
        <ele>1859</ele>
        <time>2016-08-02T10:02:29.000Z</time>
      </trkpt>
      <trkpt lat="46.2238" lon="6.77034">
        <ele>1863</ele>
        <time>2016-08-02T10:02:41.000Z</time>
      </trkpt>
      <trkpt lat="46.22372" lon="6.7704">
        <ele>1856</ele>
        <time>2016-08-02T10:02:48.000Z</time>
      </trkpt>
      <trkpt lat="46.22365" lon="6.77048">
        <ele>1856</ele>
        <time>2016-08-02T10:02:55.000Z</time>
      </trkpt>
      <trkpt lat="46.22356" lon="6.77051">
        <ele>1853</ele>
        <time>2016-08-02T10:03:33.000Z</time>
      </trkpt>
      <trkpt lat="46.22349" lon="6.77061">
        <ele>1855</ele>
        <time>2016-08-02T10:03:40.000Z</time>
      </trkpt>
      <trkpt lat="46.22341" lon="6.77072">
        <ele>1856</ele>
        <time>2016-08-02T10:03:52.000Z</time>
      </trkpt>
      <trkpt lat="46.22335" lon="6.77083">
        <ele>1851</ele>
        <time>2016-08-02T10:07:15.000Z</time>
      </trkpt>
      <trkpt lat="46.2233" lon="6.77094">
        <ele>1848</ele>
        <time>2016-08-02T10:07:34.000Z</time>
      </trkpt>
      <trkpt lat="46.22324" lon="6.77104">
        <ele>1847</ele>
        <time>2016-08-02T10:07:51.000Z</time>
      </trkpt>
      <trkpt lat="46.22319" lon="6.77116">
        <ele>1851</ele>
        <time>2016-08-02T10:08:02.000Z</time>
      </trkpt>
      <trkpt lat="46.22313" lon="6.77125">
        <ele>1847</ele>
        <time>2016-08-02T10:08:09.000Z</time>
      </trkpt>
      <trkpt lat="46.22308" lon="6.77138">
        <ele>1848</ele>
        <time>2016-08-02T10:08:18.000Z</time>
      </trkpt>
      <trkpt lat="46.223" lon="6.77145">
        <ele>1845</ele>
        <time>2016-08-02T10:08:26.000Z</time>
      </trkpt>
      <trkpt lat="46.22294" lon="6.77154">
        <ele>1845</ele>
        <time>2016-08-02T10:08:40.000Z</time>
      </trkpt>
      <trkpt lat="46.22289" lon="6.77166">
        <ele>1844</ele>
        <time>2016-08-02T10:08:52.000Z</time>
      </trkpt>
      <trkpt lat="46.22282" lon="6.77177">
        <ele>1844</ele>
        <time>2016-08-02T10:09:01.000Z</time>
      </trkpt>
      <trkpt lat="46.22274" lon="6.77185">
        <ele>1839</ele>
        <time>2016-08-02T10:09:09.000Z</time>
      </trkpt>
      <trkpt lat="46.22268" lon="6.77196">
        <ele>1835</ele>
        <time>2016-08-02T10:09:18.000Z</time>
      </trkpt>
      <trkpt lat="46.22262" lon="6.77207">
        <ele>1833</ele>
        <time>2016-08-02T10:09:26.000Z</time>
      </trkpt>
      <trkpt lat="46.22257" lon="6.77218">
        <ele>1831</ele>
        <time>2016-08-02T10:09:55.000Z</time>
      </trkpt>
      <trkpt lat="46.2226" lon="6.77232">
        <ele>1831</ele>
        <time>2016-08-02T10:10:04.000Z</time>
      </trkpt>
      <trkpt lat="46.22252" lon="6.77238">
        <ele>1835</ele>
        <time>2016-08-02T10:10:44.000Z</time>
      </trkpt>
      <trkpt lat="46.22244" lon="6.77243">
        <ele>1836</ele>
        <time>2016-08-02T10:13:32.000Z</time>
      </trkpt>
      <trkpt lat="46.22235" lon="6.77243">
        <ele>1837</ele>
        <time>2016-08-02T10:13:39.000Z</time>
      </trkpt>
      <trkpt lat="46.22227" lon="6.77253">
        <ele>1838</ele>
        <time>2016-08-02T10:13:48.000Z</time>
      </trkpt>
      <trkpt lat="46.2222" lon="6.77263">
        <ele>1841</ele>
        <time>2016-08-02T10:13:55.000Z</time>
      </trkpt>
      <trkpt lat="46.22212" lon="6.77268">
        <ele>1841</ele>
        <time>2016-08-02T10:14:01.000Z</time>
      </trkpt>
      <trkpt lat="46.22218" lon="6.77278">
        <ele>1840</ele>
        <time>2016-08-02T10:14:23.000Z</time>
      </trkpt>
      <trkpt lat="46.2221" lon="6.77271">
        <ele>1842</ele>
        <time>2016-08-02T10:17:50.000Z</time>
      </trkpt>
      <trkpt lat="46.22203" lon="6.77281">
        <ele>1839</ele>
        <time>2016-08-02T10:22:26.000Z</time>
      </trkpt>
      <trkpt lat="46.22196" lon="6.77288">
        <ele>1841</ele>
        <time>2016-08-02T10:22:52.000Z</time>
      </trkpt>
      <trkpt lat="46.22187" lon="6.77291">
        <ele>1844</ele>
        <time>2016-08-02T10:23:01.000Z</time>
      </trkpt>
      <trkpt lat="46.22177" lon="6.77289">
        <ele>1843</ele>
        <time>2016-08-02T10:23:34.000Z</time>
      </trkpt>
      <trkpt lat="46.22168" lon="6.7729">
        <ele>1841</ele>
        <time>2016-08-02T10:23:40.000Z</time>
      </trkpt>
      <trkpt lat="46.22156" lon="6.77289">
        <ele>1840</ele>
        <time>2016-08-02T10:23:51.000Z</time>
      </trkpt>
      <trkpt lat="46.22147" lon="6.77286">
        <ele>1838</ele>
        <time>2016-08-02T10:24:00.000Z</time>
      </trkpt>
      <trkpt lat="46.22137" lon="6.77281">
        <ele>1838</ele>
        <time>2016-08-02T10:24:10.000Z</time>
      </trkpt>
      <trkpt lat="46.22128" lon="6.77276">
        <ele>1840</ele>
        <time>2016-08-02T10:24:16.000Z</time>
      </trkpt>
      <trkpt lat="46.22118" lon="6.77279">
        <ele>1836</ele>
        <time>2016-08-02T10:24:55.000Z</time>
      </trkpt>
      <trkpt lat="46.22112" lon="6.77289">
        <ele>1834</ele>
        <time>2016-08-02T10:25:10.000Z</time>
      </trkpt>
      <trkpt lat="46.22117" lon="6.77278">
        <ele>1830</ele>
        <time>2016-08-02T10:25:23.000Z</time>
      </trkpt>
      <trkpt lat="46.22125" lon="6.77271">
        <ele>1831</ele>
        <time>2016-08-02T10:26:37.000Z</time>
      </trkpt>
      <trkpt lat="46.22132" lon="6.77264">
        <ele>1833</ele>
        <time>2016-08-02T10:26:57.000Z</time>
      </trkpt>
      <trkpt lat="46.22123" lon="6.77269">
        <ele>1833</ele>
        <time>2016-08-02T10:27:11.000Z</time>
      </trkpt>
      <trkpt lat="46.22116" lon="6.77276">
        <ele>1835</ele>
        <time>2016-08-02T10:29:29.000Z</time>
      </trkpt>
      <trkpt lat="46.22109" lon="6.77284">
        <ele>1827</ele>
        <time>2016-08-02T10:29:50.000Z</time>
      </trkpt>
      <trkpt lat="46.22102" lon="6.77294">
        <ele>1837</ele>
        <time>2016-08-02T10:31:00.000Z</time>
      </trkpt>
      <trkpt lat="46.22101" lon="6.77307">
        <ele>1844</ele>
        <time>2016-08-02T10:31:19.000Z</time>
      </trkpt>
      <trkpt lat="46.22104" lon="6.7732">
        <ele>1846</ele>
        <time>2016-08-02T10:31:35.000Z</time>
      </trkpt>
      <trkpt lat="46.22106" lon="6.77333">
        <ele>1847</ele>
        <time>2016-08-02T10:31:46.000Z</time>
      </trkpt>
      <trkpt lat="46.22107" lon="6.77346">
        <ele>1847</ele>
        <time>2016-08-02T10:32:21.000Z</time>
      </trkpt>
      <trkpt lat="46.22101" lon="6.77356">
        <ele>1851</ele>
        <time>2016-08-02T10:32:34.000Z</time>
      </trkpt>
      <trkpt lat="46.22097" lon="6.77368">
        <ele>1860</ele>
        <time>2016-08-02T10:32:51.000Z</time>
      </trkpt>
      <trkpt lat="46.22089" lon="6.77375">
        <ele>1862</ele>
        <time>2016-08-02T10:33:07.000Z</time>
      </trkpt>
      <trkpt lat="46.22082" lon="6.77385">
        <ele>1859</ele>
        <time>2016-08-02T10:33:23.000Z</time>
      </trkpt>
      <trkpt lat="46.22077" lon="6.77395">
        <ele>1862</ele>
        <time>2016-08-02T10:33:43.000Z</time>
      </trkpt>
      <trkpt lat="46.22072" lon="6.77406">
        <ele>1865</ele>
        <time>2016-08-02T10:34:02.000Z</time>
      </trkpt>
      <trkpt lat="46.22063" lon="6.77411">
        <ele>1863</ele>
        <time>2016-08-02T10:34:19.000Z</time>
      </trkpt>
      <trkpt lat="46.22056" lon="6.77421">
        <ele>1866</ele>
        <time>2016-08-02T10:34:40.000Z</time>
      </trkpt>
      <trkpt lat="46.22052" lon="6.77433">
        <ele>1875</ele>
        <time>2016-08-02T10:35:11.000Z</time>
      </trkpt>
      <trkpt lat="46.22051" lon="6.77446">
        <ele>1885</ele>
        <time>2016-08-02T10:35:28.000Z</time>
      </trkpt>
      <trkpt lat="46.22043" lon="6.77455">
        <ele>1882</ele>
        <time>2016-08-02T10:35:42.000Z</time>
      </trkpt>
      <trkpt lat="46.22037" lon="6.77465">
        <ele>1886</ele>
        <time>2016-08-02T10:36:00.000Z</time>
      </trkpt>
      <trkpt lat="46.22028" lon="6.7747">
        <ele>1886</ele>
        <time>2016-08-02T10:36:14.000Z</time>
      </trkpt>
      <trkpt lat="46.22023" lon="6.77481">
        <ele>1889</ele>
        <time>2016-08-02T10:36:30.000Z</time>
      </trkpt>
      <trkpt lat="46.22014" lon="6.77487">
        <ele>1882</ele>
        <time>2016-08-02T10:36:52.000Z</time>
      </trkpt>
      <trkpt lat="46.22009" lon="6.77497">
        <ele>1889</ele>
        <time>2016-08-02T10:37:21.000Z</time>
      </trkpt>
      <trkpt lat="46.22001" lon="6.77504">
        <ele>1888</ele>
        <time>2016-08-02T10:37:37.000Z</time>
      </trkpt>
      <trkpt lat="46.21999" lon="6.77517">
        <ele>1884</ele>
        <time>2016-08-02T10:37:52.000Z</time>
      </trkpt>
      <trkpt lat="46.21996" lon="6.7753">
        <ele>1893</ele>
        <time>2016-08-02T10:38:23.000Z</time>
      </trkpt>
      <trkpt lat="46.21993" lon="6.77542">
        <ele>1898</ele>
        <time>2016-08-02T10:38:44.000Z</time>
      </trkpt>
      <trkpt lat="46.21988" lon="6.77554">
        <ele>1901</ele>
        <time>2016-08-02T10:39:15.000Z</time>
      </trkpt>
      <trkpt lat="46.21982" lon="6.77564">
        <ele>1905</ele>
        <time>2016-08-02T10:39:38.000Z</time>
      </trkpt>
      <trkpt lat="46.21981" lon="6.77578">
        <ele>1908</ele>
        <time>2016-08-02T10:40:02.000Z</time>
      </trkpt>
      <trkpt lat="46.21975" lon="6.77588">
        <ele>1910</ele>
        <time>2016-08-02T10:40:23.000Z</time>
      </trkpt>
      <trkpt lat="46.21975" lon="6.77601">
        <ele>1914</ele>
        <time>2016-08-02T10:41:00.000Z</time>
      </trkpt>
      <trkpt lat="46.21972" lon="6.77614">
        <ele>1914</ele>
        <time>2016-08-02T10:41:21.000Z</time>
      </trkpt>
      <trkpt lat="46.21968" lon="6.77626">
        <ele>1918</ele>
        <time>2016-08-02T10:41:44.000Z</time>
      </trkpt>
      <trkpt lat="46.21969" lon="6.7764">
        <ele>1915</ele>
        <time>2016-08-02T10:41:57.000Z</time>
      </trkpt>
      <trkpt lat="46.21968" lon="6.77653">
        <ele>1914</ele>
        <time>2016-08-02T10:42:10.000Z</time>
      </trkpt>
      <trkpt lat="46.21965" lon="6.77666">
        <ele>1919</ele>
        <time>2016-08-02T10:42:27.000Z</time>
      </trkpt>
      <trkpt lat="46.21961" lon="6.77679">
        <ele>1923</ele>
        <time>2016-08-02T10:42:53.000Z</time>
      </trkpt>
      <trkpt lat="46.21955" lon="6.77689">
        <ele>1923</ele>
        <time>2016-08-02T10:43:06.000Z</time>
      </trkpt>
      <trkpt lat="46.21951" lon="6.77701">
        <ele>1920</ele>
        <time>2016-08-02T10:43:39.000Z</time>
      </trkpt>
      <trkpt lat="46.21945" lon="6.77713">
        <ele>1918</ele>
        <time>2016-08-02T10:43:55.000Z</time>
      </trkpt>
      <trkpt lat="46.2194" lon="6.77724">
        <ele>1919</ele>
        <time>2016-08-02T10:44:06.000Z</time>
      </trkpt>
      <trkpt lat="46.21937" lon="6.77736">
        <ele>1920</ele>
        <time>2016-08-02T10:44:15.000Z</time>
      </trkpt>
      <trkpt lat="46.21932" lon="6.77748">
        <ele>1921</ele>
        <time>2016-08-02T10:44:25.000Z</time>
      </trkpt>
      <trkpt lat="46.21928" lon="6.7776">
        <ele>1921</ele>
        <time>2016-08-02T10:44:35.000Z</time>
      </trkpt>
      <trkpt lat="46.21919" lon="6.77766">
        <ele>1923</ele>
        <time>2016-08-02T10:44:52.000Z</time>
      </trkpt>
      <trkpt lat="46.21912" lon="6.77777">
        <ele>1919</ele>
        <time>2016-08-02T10:45:00.000Z</time>
      </trkpt>
      <trkpt lat="46.21908" lon="6.77788">
        <ele>1919</ele>
        <time>2016-08-02T10:45:11.000Z</time>
      </trkpt>
      <trkpt lat="46.21909" lon="6.77801">
        <ele>1925</ele>
        <time>2016-08-02T10:47:01.000Z</time>
      </trkpt>
      <trkpt lat="46.219" lon="6.77806">
        <ele>1921</ele>
        <time>2016-08-02T10:47:46.000Z</time>
      </trkpt>
      <trkpt lat="46.21897" lon="6.77819">
        <ele>1923</ele>
        <time>2016-08-02T10:47:58.000Z</time>
      </trkpt>
      <trkpt lat="46.21896" lon="6.77833">
        <ele>1924</ele>
        <time>2016-08-02T10:48:43.000Z</time>
      </trkpt>
      <trkpt lat="46.21896" lon="6.77846">
        <ele>1931</ele>
        <time>2016-08-02T10:48:58.000Z</time>
      </trkpt>
      <trkpt lat="46.21893" lon="6.77859">
        <ele>1934</ele>
        <time>2016-08-02T10:49:26.000Z</time>
      </trkpt>
      <trkpt lat="46.2189" lon="6.77872">
        <ele>1931</ele>
        <time>2016-08-02T10:49:55.000Z</time>
      </trkpt>
      <trkpt lat="46.21881" lon="6.77875">
        <ele>1928</ele>
        <time>2016-08-02T10:50:15.000Z</time>
      </trkpt>
      <trkpt lat="46.21877" lon="6.77888">
        <ele>1933</ele>
        <time>2016-08-02T10:50:48.000Z</time>
      </trkpt>
      <trkpt lat="46.21881" lon="6.779">
        <ele>1938</ele>
        <time>2016-08-02T10:51:49.000Z</time>
      </trkpt>
      <trkpt lat="46.2188" lon="6.77914">
        <ele>1946</ele>
        <time>2016-08-02T10:52:09.000Z</time>
      </trkpt>
      <trkpt lat="46.21883" lon="6.77929">
        <ele>1957</ele>
        <time>2016-08-02T10:52:56.000Z</time>
      </trkpt>
      <trkpt lat="46.21882" lon="6.77946">
        <ele>1961</ele>
        <time>2016-08-02T10:53:41.000Z</time>
      </trkpt>
      <trkpt lat="46.21874" lon="6.7795">
        <ele>1972</ele>
        <time>2016-08-02T10:54:43.000Z</time>
      </trkpt>
      <trkpt lat="46.2187" lon="6.77963">
        <ele>1966</ele>
        <time>2016-08-02T10:55:30.000Z</time>
      </trkpt>
      <trkpt lat="46.21867" lon="6.77976">
        <ele>1961</ele>
        <time>2016-08-02T10:55:48.000Z</time>
      </trkpt>
      <trkpt lat="46.21867" lon="6.77989">
        <ele>1968</ele>
        <time>2016-08-02T10:56:18.000Z</time>
      </trkpt>
      <trkpt lat="46.21858" lon="6.77993">
        <ele>1971</ele>
        <time>2016-08-02T10:57:29.000Z</time>
      </trkpt>
      <trkpt lat="46.21851" lon="6.78002">
        <ele>1973</ele>
        <time>2016-08-02T10:57:50.000Z</time>
      </trkpt>
      <trkpt lat="46.21843" lon="6.78009">
        <ele>1975</ele>
        <time>2016-08-02T10:58:34.000Z</time>
      </trkpt>
      <trkpt lat="46.21836" lon="6.7802">
        <ele>1982</ele>
        <time>2016-08-02T10:58:51.000Z</time>
      </trkpt>
      <trkpt lat="46.21835" lon="6.78033">
        <ele>1987</ele>
        <time>2016-08-02T10:59:21.000Z</time>
      </trkpt>
      <trkpt lat="46.21829" lon="6.78044">
        <ele>1984</ele>
        <time>2016-08-02T11:00:08.000Z</time>
      </trkpt>
      <trkpt lat="46.2183" lon="6.78058">
        <ele>1990</ele>
        <time>2016-08-02T11:00:27.000Z</time>
      </trkpt>
      <trkpt lat="46.21825" lon="6.78071">
        <ele>1992</ele>
        <time>2016-08-02T11:01:01.000Z</time>
      </trkpt>
      <trkpt lat="46.21823" lon="6.78084">
        <ele>1999</ele>
        <time>2016-08-02T11:01:30.000Z</time>
      </trkpt>
      <trkpt lat="46.21819" lon="6.78095">
        <ele>2000</ele>
        <time>2016-08-02T11:01:45.000Z</time>
      </trkpt>
      <trkpt lat="46.21812" lon="6.78104">
        <ele>1998</ele>
        <time>2016-08-02T11:02:03.000Z</time>
      </trkpt>
      <trkpt lat="46.21814" lon="6.78117">
        <ele>1998</ele>
        <time>2016-08-02T11:02:36.000Z</time>
      </trkpt>
      <trkpt lat="46.21812" lon="6.7813">
        <ele>2002</ele>
        <time>2016-08-02T11:07:00.000Z</time>
      </trkpt>
      <trkpt lat="46.21807" lon="6.7814">
        <ele>1985</ele>
        <time>2016-08-02T11:07:32.000Z</time>
      </trkpt>
      <trkpt lat="46.21799" lon="6.78149">
        <ele>1989</ele>
        <time>2016-08-02T11:08:15.000Z</time>
      </trkpt>
      <trkpt lat="46.21798" lon="6.78162">
        <ele>1993</ele>
        <time>2016-08-02T11:08:24.000Z</time>
      </trkpt>
      <trkpt lat="46.21788" lon="6.78162">
        <ele>1989</ele>
        <time>2016-08-02T11:08:48.000Z</time>
      </trkpt>
      <trkpt lat="46.21785" lon="6.78174">
        <ele>1986</ele>
        <time>2016-08-02T11:09:27.000Z</time>
      </trkpt>
      <trkpt lat="46.21794" lon="6.78179">
        <ele>1988</ele>
        <time>2016-08-02T11:09:40.000Z</time>
      </trkpt>
      <trkpt lat="46.21793" lon="6.78193">
        <ele>1987</ele>
        <time>2016-08-02T11:09:52.000Z</time>
      </trkpt>
      <trkpt lat="46.21787" lon="6.78202">
        <ele>1990</ele>
        <time>2016-08-02T11:10:03.000Z</time>
      </trkpt>
      <trkpt lat="46.21781" lon="6.78215">
        <ele>1984</ele>
        <time>2016-08-02T11:13:03.000Z</time>
      </trkpt>
      <trkpt lat="46.21786" lon="6.78204">
        <ele>1986</ele>
        <time>2016-08-02T11:13:49.000Z</time>
      </trkpt>
      <trkpt lat="46.21779" lon="6.78212">
        <ele>1983</ele>
        <time>2016-08-02T11:14:06.000Z</time>
      </trkpt>
      <trkpt lat="46.21788" lon="6.7821">
        <ele>1992</ele>
        <time>2016-08-02T11:46:36.000Z</time>
      </trkpt>
      <trkpt lat="46.21779" lon="6.78213">
        <ele>1992</ele>
        <time>2016-08-02T12:10:47.000Z</time>
      </trkpt>
      <trkpt lat="46.21771" lon="6.78218">
        <ele>1988</ele>
        <time>2016-08-02T12:11:17.000Z</time>
      </trkpt>
      <trkpt lat="46.21768" lon="6.78231">
        <ele>1987</ele>
        <time>2016-08-02T12:11:29.000Z</time>
      </trkpt>
      <trkpt lat="46.21761" lon="6.7824">
        <ele>1986</ele>
        <time>2016-08-02T12:11:40.000Z</time>
      </trkpt>
      <trkpt lat="46.21755" lon="6.7825">
        <ele>1984</ele>
        <time>2016-08-02T12:11:51.000Z</time>
      </trkpt>
      <trkpt lat="46.21751" lon="6.78263">
        <ele>1982</ele>
        <time>2016-08-02T12:12:00.000Z</time>
      </trkpt>
      <trkpt lat="46.21745" lon="6.78273">
        <ele>1980</ele>
        <time>2016-08-02T12:12:09.000Z</time>
      </trkpt>
      <trkpt lat="46.21737" lon="6.78282">
        <ele>1979</ele>
        <time>2016-08-02T12:12:18.000Z</time>
      </trkpt>
      <trkpt lat="46.2173" lon="6.78291">
        <ele>1977</ele>
        <time>2016-08-02T12:12:27.000Z</time>
      </trkpt>
      <trkpt lat="46.21722" lon="6.78296">
        <ele>1976</ele>
        <time>2016-08-02T12:12:35.000Z</time>
      </trkpt>
      <trkpt lat="46.21714" lon="6.78305">
        <ele>1979</ele>
        <time>2016-08-02T12:12:45.000Z</time>
      </trkpt>
      <trkpt lat="46.21708" lon="6.78314">
        <ele>1975</ele>
        <time>2016-08-02T12:13:07.000Z</time>
      </trkpt>
      <trkpt lat="46.21699" lon="6.78321">
        <ele>1973</ele>
        <time>2016-08-02T12:13:17.000Z</time>
      </trkpt>
      <trkpt lat="46.21692" lon="6.78329">
        <ele>1967</ele>
        <time>2016-08-02T12:14:22.000Z</time>
      </trkpt>
      <trkpt lat="46.21683" lon="6.78336">
        <ele>1963</ele>
        <time>2016-08-02T12:14:33.000Z</time>
      </trkpt>
      <trkpt lat="46.21676" lon="6.78345">
        <ele>1962</ele>
        <time>2016-08-02T12:14:42.000Z</time>
      </trkpt>
      <trkpt lat="46.21668" lon="6.78353">
        <ele>1965</ele>
        <time>2016-08-02T12:14:51.000Z</time>
      </trkpt>
      <trkpt lat="46.21661" lon="6.78363">
        <ele>1963</ele>
        <time>2016-08-02T12:15:00.000Z</time>
      </trkpt>
      <trkpt lat="46.21656" lon="6.78375">
        <ele>1962</ele>
        <time>2016-08-02T12:15:08.000Z</time>
      </trkpt>
      <trkpt lat="46.2165" lon="6.78388">
        <ele>1965</ele>
        <time>2016-08-02T12:15:24.000Z</time>
      </trkpt>
      <trkpt lat="46.21643" lon="6.78398">
        <ele>1964</ele>
        <time>2016-08-02T12:15:34.000Z</time>
      </trkpt>
      <trkpt lat="46.21636" lon="6.78407">
        <ele>1963</ele>
        <time>2016-08-02T12:15:45.000Z</time>
      </trkpt>
      <trkpt lat="46.2163" lon="6.78416">
        <ele>1962</ele>
        <time>2016-08-02T12:15:53.000Z</time>
      </trkpt>
      <trkpt lat="46.21624" lon="6.78427">
        <ele>1959</ele>
        <time>2016-08-02T12:16:13.000Z</time>
      </trkpt>
      <trkpt lat="46.21619" lon="6.78438">
        <ele>1957</ele>
        <time>2016-08-02T12:16:22.000Z</time>
      </trkpt>
      <trkpt lat="46.21615" lon="6.78451">
        <ele>1956</ele>
        <time>2016-08-02T12:16:30.000Z</time>
      </trkpt>
      <trkpt lat="46.21606" lon="6.78459">
        <ele>1960</ele>
        <time>2016-08-02T12:16:37.000Z</time>
      </trkpt>
      <trkpt lat="46.21597" lon="6.78467">
        <ele>1960</ele>
        <time>2016-08-02T12:16:45.000Z</time>
      </trkpt>
      <trkpt lat="46.21588" lon="6.78472">
        <ele>1959</ele>
        <time>2016-08-02T12:16:53.000Z</time>
      </trkpt>
      <trkpt lat="46.21581" lon="6.7848">
        <ele>1958</ele>
        <time>2016-08-02T12:17:00.000Z</time>
      </trkpt>
      <trkpt lat="46.21574" lon="6.78491">
        <ele>1955</ele>
        <time>2016-08-02T12:17:09.000Z</time>
      </trkpt>
      <trkpt lat="46.21567" lon="6.785">
        <ele>1955</ele>
        <time>2016-08-02T12:17:16.000Z</time>
      </trkpt>
      <trkpt lat="46.21561" lon="6.78511">
        <ele>1956</ele>
        <time>2016-08-02T12:17:24.000Z</time>
      </trkpt>
      <trkpt lat="46.21555" lon="6.78523">
        <ele>1953</ele>
        <time>2016-08-02T12:17:33.000Z</time>
      </trkpt>
      <trkpt lat="46.21551" lon="6.78536">
        <ele>1953</ele>
        <time>2016-08-02T12:17:43.000Z</time>
      </trkpt>
      <trkpt lat="46.21544" lon="6.78545">
        <ele>1952</ele>
        <time>2016-08-02T12:18:25.000Z</time>
      </trkpt>
      <trkpt lat="46.21536" lon="6.78552">
        <ele>1950</ele>
        <time>2016-08-02T12:18:54.000Z</time>
      </trkpt>
      <trkpt lat="46.21528" lon="6.78558">
        <ele>1948</ele>
        <time>2016-08-02T12:19:02.000Z</time>
      </trkpt>
      <trkpt lat="46.2152" lon="6.78566">
        <ele>1950</ele>
        <time>2016-08-02T12:19:10.000Z</time>
      </trkpt>
      <trkpt lat="46.21512" lon="6.78571">
        <ele>1950</ele>
        <time>2016-08-02T12:19:19.000Z</time>
      </trkpt>
      <trkpt lat="46.21503" lon="6.78576">
        <ele>1948</ele>
        <time>2016-08-02T12:19:26.000Z</time>
      </trkpt>
      <trkpt lat="46.21494" lon="6.78582">
        <ele>1943</ele>
        <time>2016-08-02T12:19:34.000Z</time>
      </trkpt>
      <trkpt lat="46.21486" lon="6.78591">
        <ele>1943</ele>
        <time>2016-08-02T12:19:50.000Z</time>
      </trkpt>
      <trkpt lat="46.21479" lon="6.786">
        <ele>1945</ele>
        <time>2016-08-02T12:19:56.000Z</time>
      </trkpt>
      <trkpt lat="46.21475" lon="6.78612">
        <ele>1945</ele>
        <time>2016-08-02T12:20:03.000Z</time>
      </trkpt>
      <trkpt lat="46.21469" lon="6.78624">
        <ele>1947</ele>
        <time>2016-08-02T12:20:11.000Z</time>
      </trkpt>
      <trkpt lat="46.21459" lon="6.78624">
        <ele>1948</ele>
        <time>2016-08-02T12:20:25.000Z</time>
      </trkpt>
      <trkpt lat="46.21452" lon="6.78632">
        <ele>1951</ele>
        <time>2016-08-02T12:20:37.000Z</time>
      </trkpt>
      <trkpt lat="46.21445" lon="6.78641">
        <ele>1952</ele>
        <time>2016-08-02T12:20:59.000Z</time>
      </trkpt>
      <trkpt lat="46.21438" lon="6.78649">
        <ele>1954</ele>
        <time>2016-08-02T12:21:09.000Z</time>
      </trkpt>
      <trkpt lat="46.21429" lon="6.78656">
        <ele>1953</ele>
        <time>2016-08-02T12:21:41.000Z</time>
      </trkpt>
      <trkpt lat="46.21422" lon="6.78666">
        <ele>1955</ele>
        <time>2016-08-02T12:21:50.000Z</time>
      </trkpt>
      <trkpt lat="46.21414" lon="6.78674">
        <ele>1956</ele>
        <time>2016-08-02T12:22:00.000Z</time>
      </trkpt>
      <trkpt lat="46.21405" lon="6.78683">
        <ele>1954</ele>
        <time>2016-08-02T12:22:08.000Z</time>
      </trkpt>
      <trkpt lat="46.21397" lon="6.78689">
        <ele>1953</ele>
        <time>2016-08-02T12:22:18.000Z</time>
      </trkpt>
      <trkpt lat="46.21391" lon="6.787">
        <ele>1953</ele>
        <time>2016-08-02T12:22:27.000Z</time>
      </trkpt>
      <trkpt lat="46.21385" lon="6.78712">
        <ele>1956</ele>
        <time>2016-08-02T12:22:34.000Z</time>
      </trkpt>
      <trkpt lat="46.2138" lon="6.78725">
        <ele>1956</ele>
        <time>2016-08-02T12:22:48.000Z</time>
      </trkpt>
      <trkpt lat="46.21376" lon="6.78736">
        <ele>1955</ele>
        <time>2016-08-02T12:23:02.000Z</time>
      </trkpt>
      <trkpt lat="46.21372" lon="6.78748">
        <ele>1956</ele>
        <time>2016-08-02T12:23:10.000Z</time>
      </trkpt>
      <trkpt lat="46.21366" lon="6.78759">
        <ele>1957</ele>
        <time>2016-08-02T12:23:17.000Z</time>
      </trkpt>
      <trkpt lat="46.21364" lon="6.78772">
        <ele>1954</ele>
        <time>2016-08-02T12:23:26.000Z</time>
      </trkpt>
      <trkpt lat="46.21359" lon="6.78783">
        <ele>1955</ele>
        <time>2016-08-02T12:23:34.000Z</time>
      </trkpt>
      <trkpt lat="46.21352" lon="6.78793">
        <ele>1957</ele>
        <time>2016-08-02T12:23:43.000Z</time>
      </trkpt>
      <trkpt lat="46.21346" lon="6.78804">
        <ele>1959</ele>
        <time>2016-08-02T12:23:52.000Z</time>
      </trkpt>
      <trkpt lat="46.21339" lon="6.78814">
        <ele>1962</ele>
        <time>2016-08-02T12:23:59.000Z</time>
      </trkpt>
      <trkpt lat="46.21332" lon="6.78823">
        <ele>1963</ele>
        <time>2016-08-02T12:24:07.000Z</time>
      </trkpt>
      <trkpt lat="46.21325" lon="6.78833">
        <ele>1961</ele>
        <time>2016-08-02T12:24:17.000Z</time>
      </trkpt>
      <trkpt lat="46.21318" lon="6.78842">
        <ele>1961</ele>
        <time>2016-08-02T12:24:25.000Z</time>
      </trkpt>
      <trkpt lat="46.21312" lon="6.78854">
        <ele>1962</ele>
        <time>2016-08-02T12:24:39.000Z</time>
      </trkpt>
      <trkpt lat="46.21305" lon="6.78864">
        <ele>1962</ele>
        <time>2016-08-02T12:24:47.000Z</time>
      </trkpt>
      <trkpt lat="46.21299" lon="6.78875">
        <ele>1963</ele>
        <time>2016-08-02T12:24:55.000Z</time>
      </trkpt>
      <trkpt lat="46.21291" lon="6.78885">
        <ele>1963</ele>
        <time>2016-08-02T12:25:07.000Z</time>
      </trkpt>
      <trkpt lat="46.21286" lon="6.78898">
        <ele>1963</ele>
        <time>2016-08-02T12:25:15.000Z</time>
      </trkpt>
      <trkpt lat="46.21282" lon="6.7891">
        <ele>1966</ele>
        <time>2016-08-02T12:25:24.000Z</time>
      </trkpt>
      <trkpt lat="46.21275" lon="6.78921">
        <ele>1968</ele>
        <time>2016-08-02T12:25:32.000Z</time>
      </trkpt>
      <trkpt lat="46.21273" lon="6.78935">
        <ele>1969</ele>
        <time>2016-08-02T12:25:40.000Z</time>
      </trkpt>
      <trkpt lat="46.2127" lon="6.78948">
        <ele>1970</ele>
        <time>2016-08-02T12:25:48.000Z</time>
      </trkpt>
      <trkpt lat="46.21265" lon="6.7896">
        <ele>1972</ele>
        <time>2016-08-02T12:25:55.000Z</time>
      </trkpt>
      <trkpt lat="46.21261" lon="6.78971">
        <ele>1970</ele>
        <time>2016-08-02T12:26:02.000Z</time>
      </trkpt>
      <trkpt lat="46.21256" lon="6.78982">
        <ele>1973</ele>
        <time>2016-08-02T12:26:11.000Z</time>
      </trkpt>
      <trkpt lat="46.21249" lon="6.78989">
        <ele>1973</ele>
        <time>2016-08-02T12:26:24.000Z</time>
      </trkpt>
      <trkpt lat="46.21241" lon="6.78997">
        <ele>1968</ele>
        <time>2016-08-02T12:26:35.000Z</time>
      </trkpt>
      <trkpt lat="46.21248" lon="6.79005">
        <ele>1963</ele>
        <time>2016-08-02T12:27:16.000Z</time>
      </trkpt>
      <trkpt lat="46.2124" lon="6.78999">
        <ele>1962</ele>
        <time>2016-08-02T12:27:47.000Z</time>
      </trkpt>
      <trkpt lat="46.21245" lon="6.78987">
        <ele>1966</ele>
        <time>2016-08-02T12:29:07.000Z</time>
      </trkpt>
      <trkpt lat="46.21247" lon="6.78974">
        <ele>1962</ele>
        <time>2016-08-02T12:29:15.000Z</time>
      </trkpt>
      <trkpt lat="46.21249" lon="6.78962">
        <ele>1960</ele>
        <time>2016-08-02T12:29:23.000Z</time>
      </trkpt>
      <trkpt lat="46.21252" lon="6.78947">
        <ele>1956</ele>
        <time>2016-08-02T12:29:31.000Z</time>
      </trkpt>
      <trkpt lat="46.21253" lon="6.78933">
        <ele>1954</ele>
        <time>2016-08-02T12:29:49.000Z</time>
      </trkpt>
      <trkpt lat="46.21256" lon="6.78919">
        <ele>1956</ele>
        <time>2016-08-02T12:29:58.000Z</time>
      </trkpt>
      <trkpt lat="46.21258" lon="6.78906">
        <ele>1953</ele>
        <time>2016-08-02T12:30:07.000Z</time>
      </trkpt>
      <trkpt lat="46.21261" lon="6.78893">
        <ele>1952</ele>
        <time>2016-08-02T12:30:14.000Z</time>
      </trkpt>
      <trkpt lat="46.21263" lon="6.7888">
        <ele>1948</ele>
        <time>2016-08-02T12:30:20.000Z</time>
      </trkpt>
      <trkpt lat="46.21265" lon="6.78867">
        <ele>1948</ele>
        <time>2016-08-02T12:30:51.000Z</time>
      </trkpt>
      <trkpt lat="46.21268" lon="6.78854">
        <ele>1943</ele>
        <time>2016-08-02T12:31:00.000Z</time>
      </trkpt>
      <trkpt lat="46.21271" lon="6.7884">
        <ele>1941</ele>
        <time>2016-08-02T12:31:08.000Z</time>
      </trkpt>
      <trkpt lat="46.21275" lon="6.78827">
        <ele>1940</ele>
        <time>2016-08-02T12:31:17.000Z</time>
      </trkpt>
      <trkpt lat="46.21279" lon="6.78815">
        <ele>1940</ele>
        <time>2016-08-02T12:31:24.000Z</time>
      </trkpt>
      <trkpt lat="46.21286" lon="6.78806">
        <ele>1942</ele>
        <time>2016-08-02T12:31:32.000Z</time>
      </trkpt>
      <trkpt lat="46.21292" lon="6.78796">
        <ele>1943</ele>
        <time>2016-08-02T12:31:40.000Z</time>
      </trkpt>
      <trkpt lat="46.21298" lon="6.78787">
        <ele>1943</ele>
        <time>2016-08-02T12:31:47.000Z</time>
      </trkpt>
      <trkpt lat="46.21305" lon="6.78777">
        <ele>1942</ele>
        <time>2016-08-02T12:31:55.000Z</time>
      </trkpt>
      <trkpt lat="46.2131" lon="6.78766">
        <ele>1941</ele>
        <time>2016-08-02T12:32:03.000Z</time>
      </trkpt>
      <trkpt lat="46.2132" lon="6.7876">
        <ele>1936</ele>
        <time>2016-08-02T12:32:10.000Z</time>
      </trkpt>
      <trkpt lat="46.21325" lon="6.78748">
        <ele>1936</ele>
        <time>2016-08-02T12:32:17.000Z</time>
      </trkpt>
      <trkpt lat="46.21326" lon="6.78735">
        <ele>1934</ele>
        <time>2016-08-02T12:33:01.000Z</time>
      </trkpt>
      <trkpt lat="46.21323" lon="6.78721">
        <ele>1933</ele>
        <time>2016-08-02T12:33:09.000Z</time>
      </trkpt>
      <trkpt lat="46.21317" lon="6.78712">
        <ele>1931</ele>
        <time>2016-08-02T12:33:18.000Z</time>
      </trkpt>
      <trkpt lat="46.21307" lon="6.78713">
        <ele>1931</ele>
        <time>2016-08-02T12:33:37.000Z</time>
      </trkpt>
      <trkpt lat="46.21298" lon="6.78716">
        <ele>1929</ele>
        <time>2016-08-02T12:33:45.000Z</time>
      </trkpt>
      <trkpt lat="46.21291" lon="6.78708">
        <ele>1928</ele>
        <time>2016-08-02T12:33:56.000Z</time>
      </trkpt>
      <trkpt lat="46.21293" lon="6.78694">
        <ele>1925</ele>
        <time>2016-08-02T12:34:03.000Z</time>
      </trkpt>
      <trkpt lat="46.21301" lon="6.78685">
        <ele>1927</ele>
        <time>2016-08-02T12:34:11.000Z</time>
      </trkpt>
      <trkpt lat="46.21307" lon="6.78676">
        <ele>1927</ele>
        <time>2016-08-02T12:34:19.000Z</time>
      </trkpt>
      <trkpt lat="46.21316" lon="6.78669">
        <ele>1928</ele>
        <time>2016-08-02T12:34:27.000Z</time>
      </trkpt>
      <trkpt lat="46.21325" lon="6.78662">
        <ele>1925</ele>
        <time>2016-08-02T12:34:34.000Z</time>
      </trkpt>
      <trkpt lat="46.21333" lon="6.78655">
        <ele>1928</ele>
        <time>2016-08-02T12:34:42.000Z</time>
      </trkpt>
      <trkpt lat="46.2134" lon="6.78645">
        <ele>1926</ele>
        <time>2016-08-02T12:34:50.000Z</time>
      </trkpt>
      <trkpt lat="46.21347" lon="6.78635">
        <ele>1927</ele>
        <time>2016-08-02T12:34:58.000Z</time>
      </trkpt>
      <trkpt lat="46.21354" lon="6.78625">
        <ele>1927</ele>
        <time>2016-08-02T12:35:06.000Z</time>
      </trkpt>
      <trkpt lat="46.21361" lon="6.78616">
        <ele>1925</ele>
        <time>2016-08-02T12:35:14.000Z</time>
      </trkpt>
      <trkpt lat="46.21367" lon="6.78605">
        <ele>1925</ele>
        <time>2016-08-02T12:35:29.000Z</time>
      </trkpt>
      <trkpt lat="46.21376" lon="6.786">
        <ele>1923</ele>
        <time>2016-08-02T12:35:38.000Z</time>
      </trkpt>
      <trkpt lat="46.21384" lon="6.7859">
        <ele>1922</ele>
        <time>2016-08-02T12:35:46.000Z</time>
      </trkpt>
      <trkpt lat="46.21392" lon="6.78583">
        <ele>1920</ele>
        <time>2016-08-02T12:35:52.000Z</time>
      </trkpt>
      <trkpt lat="46.214" lon="6.78576">
        <ele>1928</ele>
        <time>2016-08-02T12:36:02.000Z</time>
      </trkpt>
      <trkpt lat="46.21408" lon="6.7857">
        <ele>1924</ele>
        <time>2016-08-02T12:36:08.000Z</time>
      </trkpt>
      <trkpt lat="46.21416" lon="6.78563">
        <ele>1922</ele>
        <time>2016-08-02T12:36:15.000Z</time>
      </trkpt>
      <trkpt lat="46.21424" lon="6.78556">
        <ele>1919</ele>
        <time>2016-08-02T12:36:21.000Z</time>
      </trkpt>
      <trkpt lat="46.21433" lon="6.78553">
        <ele>1918</ele>
        <time>2016-08-02T12:36:32.000Z</time>
      </trkpt>
      <trkpt lat="46.21431" lon="6.7854">
        <ele>1917</ele>
        <time>2016-08-02T12:37:37.000Z</time>
      </trkpt>
      <trkpt lat="46.2143" lon="6.78526">
        <ele>1912</ele>
        <time>2016-08-02T12:37:46.000Z</time>
      </trkpt>
      <trkpt lat="46.2143" lon="6.78513">
        <ele>1908</ele>
        <time>2016-08-02T12:37:54.000Z</time>
      </trkpt>
      <trkpt lat="46.2143" lon="6.78499">
        <ele>1905</ele>
        <time>2016-08-02T12:38:03.000Z</time>
      </trkpt>
      <trkpt lat="46.21431" lon="6.78486">
        <ele>1902</ele>
        <time>2016-08-02T12:38:10.000Z</time>
      </trkpt>
      <trkpt lat="46.21433" lon="6.78471">
        <ele>1900</ele>
        <time>2016-08-02T12:38:18.000Z</time>
      </trkpt>
      <trkpt lat="46.21434" lon="6.78458">
        <ele>1898</ele>
        <time>2016-08-02T12:38:25.000Z</time>
      </trkpt>
      <trkpt lat="46.21436" lon="6.78444">
        <ele>1899</ele>
        <time>2016-08-02T12:38:32.000Z</time>
      </trkpt>
      <trkpt lat="46.21439" lon="6.78431">
        <ele>1897</ele>
        <time>2016-08-02T12:38:39.000Z</time>
      </trkpt>
      <trkpt lat="46.21442" lon="6.78419">
        <ele>1895</ele>
        <time>2016-08-02T12:38:47.000Z</time>
      </trkpt>
      <trkpt lat="46.21444" lon="6.78406">
        <ele>1892</ele>
        <time>2016-08-02T12:38:56.000Z</time>
      </trkpt>
      <trkpt lat="46.21443" lon="6.78392">
        <ele>1894</ele>
        <time>2016-08-02T12:39:04.000Z</time>
      </trkpt>
      <trkpt lat="46.21445" lon="6.78378">
        <ele>1893</ele>
        <time>2016-08-02T12:39:13.000Z</time>
      </trkpt>
      <trkpt lat="46.21447" lon="6.78364">
        <ele>1888</ele>
        <time>2016-08-02T12:39:21.000Z</time>
      </trkpt>
      <trkpt lat="46.21448" lon="6.78351">
        <ele>1882</ele>
        <time>2016-08-02T12:39:28.000Z</time>
      </trkpt>
      <trkpt lat="46.2145" lon="6.78338">
        <ele>1880</ele>
        <time>2016-08-02T12:40:07.000Z</time>
      </trkpt>
      <trkpt lat="46.21452" lon="6.78325">
        <ele>1875</ele>
        <time>2016-08-02T12:40:25.000Z</time>
      </trkpt>
      <trkpt lat="46.21442" lon="6.78325">
        <ele>1879</ele>
        <time>2016-08-02T12:41:00.000Z</time>
      </trkpt>
      <trkpt lat="46.21436" lon="6.78334">
        <ele>1883</ele>
        <time>2016-08-02T12:41:09.000Z</time>
      </trkpt>
      <trkpt lat="46.21428" lon="6.78341">
        <ele>1883</ele>
        <time>2016-08-02T12:41:21.000Z</time>
      </trkpt>
      <trkpt lat="46.21419" lon="6.7835">
        <ele>1879</ele>
        <time>2016-08-02T12:41:38.000Z</time>
      </trkpt>
      <trkpt lat="46.2141" lon="6.78358">
        <ele>1880</ele>
        <time>2016-08-02T12:41:54.000Z</time>
      </trkpt>
      <trkpt lat="46.21402" lon="6.78366">
        <ele>1881</ele>
        <time>2016-08-02T12:42:02.000Z</time>
      </trkpt>
      <trkpt lat="46.21393" lon="6.78372">
        <ele>1881</ele>
        <time>2016-08-02T12:42:09.000Z</time>
      </trkpt>
      <trkpt lat="46.21385" lon="6.78379">
        <ele>1884</ele>
        <time>2016-08-02T12:42:17.000Z</time>
      </trkpt>
      <trkpt lat="46.21379" lon="6.78388">
        <ele>1885</ele>
        <time>2016-08-02T12:42:46.000Z</time>
      </trkpt>
      <trkpt lat="46.21372" lon="6.78397">
        <ele>1883</ele>
        <time>2016-08-02T12:43:02.000Z</time>
      </trkpt>
      <trkpt lat="46.21364" lon="6.78405">
        <ele>1884</ele>
        <time>2016-08-02T12:43:09.000Z</time>
      </trkpt>
      <trkpt lat="46.21356" lon="6.78414">
        <ele>1884</ele>
        <time>2016-08-02T12:43:18.000Z</time>
      </trkpt>
      <trkpt lat="46.21349" lon="6.78423">
        <ele>1886</ele>
        <time>2016-08-02T12:43:25.000Z</time>
      </trkpt>
      <trkpt lat="46.21341" lon="6.7843">
        <ele>1884</ele>
        <time>2016-08-02T12:43:32.000Z</time>
      </trkpt>
      <trkpt lat="46.21333" lon="6.78437">
        <ele>1885</ele>
        <time>2016-08-02T12:43:39.000Z</time>
      </trkpt>
      <trkpt lat="46.21325" lon="6.78446">
        <ele>1883</ele>
        <time>2016-08-02T12:43:47.000Z</time>
      </trkpt>
      <trkpt lat="46.21318" lon="6.78457">
        <ele>1882</ele>
        <time>2016-08-02T12:43:55.000Z</time>
      </trkpt>
      <trkpt lat="46.2131" lon="6.78465">
        <ele>1882</ele>
        <time>2016-08-02T12:44:03.000Z</time>
      </trkpt>
      <trkpt lat="46.21301" lon="6.7847">
        <ele>1881</ele>
        <time>2016-08-02T12:44:10.000Z</time>
      </trkpt>
      <trkpt lat="46.21292" lon="6.78473">
        <ele>1880</ele>
        <time>2016-08-02T12:44:17.000Z</time>
      </trkpt>
      <trkpt lat="46.21283" lon="6.78475">
        <ele>1880</ele>
        <time>2016-08-02T12:44:24.000Z</time>
      </trkpt>
      <trkpt lat="46.21274" lon="6.78479">
        <ele>1883</ele>
        <time>2016-08-02T12:44:33.000Z</time>
      </trkpt>
      <trkpt lat="46.21265" lon="6.78484">
        <ele>1881</ele>
        <time>2016-08-02T12:44:41.000Z</time>
      </trkpt>
      <trkpt lat="46.21256" lon="6.78489">
        <ele>1884</ele>
        <time>2016-08-02T12:44:50.000Z</time>
      </trkpt>
      <trkpt lat="46.21247" lon="6.78494">
        <ele>1884</ele>
        <time>2016-08-02T12:44:56.000Z</time>
      </trkpt>
      <trkpt lat="46.21238" lon="6.78499">
        <ele>1882</ele>
        <time>2016-08-02T12:45:04.000Z</time>
      </trkpt>
      <trkpt lat="46.21231" lon="6.78508">
        <ele>1882</ele>
        <time>2016-08-02T12:45:13.000Z</time>
      </trkpt>
      <trkpt lat="46.21222" lon="6.78516">
        <ele>1881</ele>
        <time>2016-08-02T12:45:22.000Z</time>
      </trkpt>
      <trkpt lat="46.21215" lon="6.78526">
        <ele>1881</ele>
        <time>2016-08-02T12:45:29.000Z</time>
      </trkpt>
      <trkpt lat="46.21208" lon="6.78535">
        <ele>1882</ele>
        <time>2016-08-02T12:45:36.000Z</time>
      </trkpt>
      <trkpt lat="46.21199" lon="6.78538">
        <ele>1883</ele>
        <time>2016-08-02T12:45:44.000Z</time>
      </trkpt>
      <trkpt lat="46.21189" lon="6.7854">
        <ele>1881</ele>
        <time>2016-08-02T12:45:53.000Z</time>
      </trkpt>
      <trkpt lat="46.21181" lon="6.78546">
        <ele>1878</ele>
        <time>2016-08-02T12:46:01.000Z</time>
      </trkpt>
      <trkpt lat="46.21173" lon="6.78552">
        <ele>1878</ele>
        <time>2016-08-02T12:46:08.000Z</time>
      </trkpt>
      <trkpt lat="46.21169" lon="6.78564">
        <ele>1875</ele>
        <time>2016-08-02T12:46:15.000Z</time>
      </trkpt>
      <trkpt lat="46.21166" lon="6.78578">
        <ele>1872</ele>
        <time>2016-08-02T12:46:22.000Z</time>
      </trkpt>
      <trkpt lat="46.21163" lon="6.78591">
        <ele>1870</ele>
        <time>2016-08-02T12:46:30.000Z</time>
      </trkpt>
      <trkpt lat="46.21161" lon="6.78604">
        <ele>1874</ele>
        <time>2016-08-02T12:46:37.000Z</time>
      </trkpt>
      <trkpt lat="46.21161" lon="6.78618">
        <ele>1875</ele>
        <time>2016-08-02T12:46:44.000Z</time>
      </trkpt>
      <trkpt lat="46.21156" lon="6.78632">
        <ele>1875</ele>
        <time>2016-08-02T12:46:51.000Z</time>
      </trkpt>
      <trkpt lat="46.21154" lon="6.78646">
        <ele>1873</ele>
        <time>2016-08-02T12:46:59.000Z</time>
      </trkpt>
      <trkpt lat="46.21149" lon="6.78658">
        <ele>1873</ele>
        <time>2016-08-02T12:47:07.000Z</time>
      </trkpt>
      <trkpt lat="46.2114" lon="6.78666">
        <ele>1876</ele>
        <time>2016-08-02T12:47:16.000Z</time>
      </trkpt>
      <trkpt lat="46.21134" lon="6.78677">
        <ele>1875</ele>
        <time>2016-08-02T12:47:23.000Z</time>
      </trkpt>
      <trkpt lat="46.21127" lon="6.78686">
        <ele>1877</ele>
        <time>2016-08-02T12:47:30.000Z</time>
      </trkpt>
      <trkpt lat="46.21123" lon="6.78698">
        <ele>1875</ele>
        <time>2016-08-02T12:47:38.000Z</time>
      </trkpt>
      <trkpt lat="46.21116" lon="6.78708">
        <ele>1872</ele>
        <time>2016-08-02T12:47:45.000Z</time>
      </trkpt>
      <trkpt lat="46.21109" lon="6.78716">
        <ele>1873</ele>
        <time>2016-08-02T12:47:53.000Z</time>
      </trkpt>
      <trkpt lat="46.21101" lon="6.78723">
        <ele>1872</ele>
        <time>2016-08-02T12:48:00.000Z</time>
      </trkpt>
      <trkpt lat="46.21092" lon="6.78727">
        <ele>1872</ele>
        <time>2016-08-02T12:48:08.000Z</time>
      </trkpt>
      <trkpt lat="46.21084" lon="6.78734">
        <ele>1872</ele>
        <time>2016-08-02T12:48:16.000Z</time>
      </trkpt>
      <trkpt lat="46.21075" lon="6.78739">
        <ele>1869</ele>
        <time>2016-08-02T12:48:30.000Z</time>
      </trkpt>
      <trkpt lat="46.21067" lon="6.78746">
        <ele>1869</ele>
        <time>2016-08-02T12:48:37.000Z</time>
      </trkpt>
      <trkpt lat="46.21058" lon="6.78752">
        <ele>1869</ele>
        <time>2016-08-02T12:48:44.000Z</time>
      </trkpt>
      <trkpt lat="46.21049" lon="6.78759">
        <ele>1870</ele>
        <time>2016-08-02T12:48:50.000Z</time>
      </trkpt>
      <trkpt lat="46.21041" lon="6.78767">
        <ele>1872</ele>
        <time>2016-08-02T12:48:58.000Z</time>
      </trkpt>
      <trkpt lat="46.21034" lon="6.78777">
        <ele>1873</ele>
        <time>2016-08-02T12:49:08.000Z</time>
      </trkpt>
      <trkpt lat="46.21025" lon="6.78784">
        <ele>1875</ele>
        <time>2016-08-02T12:49:16.000Z</time>
      </trkpt>
      <trkpt lat="46.21015" lon="6.7879">
        <ele>1879</ele>
        <time>2016-08-02T12:49:24.000Z</time>
      </trkpt>
      <trkpt lat="46.21006" lon="6.78795">
        <ele>1877</ele>
        <time>2016-08-02T12:49:31.000Z</time>
      </trkpt>
      <trkpt lat="46.20997" lon="6.788">
        <ele>1875</ele>
        <time>2016-08-02T12:49:38.000Z</time>
      </trkpt>
      <trkpt lat="46.2099" lon="6.78809">
        <ele>1875</ele>
        <time>2016-08-02T12:49:47.000Z</time>
      </trkpt>
      <trkpt lat="46.20982" lon="6.78819">
        <ele>1871</ele>
        <time>2016-08-02T12:49:55.000Z</time>
      </trkpt>
      <trkpt lat="46.20973" lon="6.78828">
        <ele>1869</ele>
        <time>2016-08-02T12:50:01.000Z</time>
      </trkpt>
      <trkpt lat="46.20964" lon="6.78833">
        <ele>1873</ele>
        <time>2016-08-02T12:50:10.000Z</time>
      </trkpt>
      <trkpt lat="46.20955" lon="6.78835">
        <ele>1867</ele>
        <time>2016-08-02T12:50:21.000Z</time>
      </trkpt>
      <trkpt lat="46.20947" lon="6.78827">
        <ele>1866</ele>
        <time>2016-08-02T12:50:29.000Z</time>
      </trkpt>
      <trkpt lat="46.20938" lon="6.7882">
        <ele>1865</ele>
        <time>2016-08-02T12:50:38.000Z</time>
      </trkpt>
      <trkpt lat="46.20928" lon="6.78815">
        <ele>1864</ele>
        <time>2016-08-02T12:50:44.000Z</time>
      </trkpt>
      <trkpt lat="46.20919" lon="6.78811">
        <ele>1866</ele>
        <time>2016-08-02T12:50:51.000Z</time>
      </trkpt>
      <trkpt lat="46.20909" lon="6.78805">
        <ele>1868</ele>
        <time>2016-08-02T12:50:58.000Z</time>
      </trkpt>
      <trkpt lat="46.209" lon="6.78803">
        <ele>1869</ele>
        <time>2016-08-02T12:51:06.000Z</time>
      </trkpt>
      <trkpt lat="46.2089" lon="6.78801">
        <ele>1866</ele>
        <time>2016-08-02T12:51:36.000Z</time>
      </trkpt>
      <trkpt lat="46.20879" lon="6.78803">
        <ele>1865</ele>
        <time>2016-08-02T12:51:43.000Z</time>
      </trkpt>
      <trkpt lat="46.20868" lon="6.78801">
        <ele>1866</ele>
        <time>2016-08-02T12:51:50.000Z</time>
      </trkpt>
      <trkpt lat="46.2086" lon="6.78806">
        <ele>1870</ele>
        <time>2016-08-02T12:51:58.000Z</time>
      </trkpt>
      <trkpt lat="46.20851" lon="6.7881">
        <ele>1869</ele>
        <time>2016-08-02T12:52:06.000Z</time>
      </trkpt>
      <trkpt lat="46.20843" lon="6.78819">
        <ele>1866</ele>
        <time>2016-08-02T12:52:13.000Z</time>
      </trkpt>
      <trkpt lat="46.20835" lon="6.78826">
        <ele>1865</ele>
        <time>2016-08-02T12:52:28.000Z</time>
      </trkpt>
      <trkpt lat="46.20825" lon="6.78829">
        <ele>1865</ele>
        <time>2016-08-02T12:52:37.000Z</time>
      </trkpt>
      <trkpt lat="46.20817" lon="6.78825">
        <ele>1864</ele>
        <time>2016-08-02T12:52:43.000Z</time>
      </trkpt>
      <trkpt lat="46.20807" lon="6.78823">
        <ele>1867</ele>
        <time>2016-08-02T12:52:49.000Z</time>
      </trkpt>
      <trkpt lat="46.20798" lon="6.78818">
        <ele>1866</ele>
        <time>2016-08-02T12:52:57.000Z</time>
      </trkpt>
      <trkpt lat="46.20789" lon="6.78814">
        <ele>1865</ele>
        <time>2016-08-02T12:53:14.000Z</time>
      </trkpt>
      <trkpt lat="46.20779" lon="6.78811">
        <ele>1866</ele>
        <time>2016-08-02T12:53:20.000Z</time>
      </trkpt>
      <trkpt lat="46.20769" lon="6.78808">
        <ele>1869</ele>
        <time>2016-08-02T12:53:28.000Z</time>
      </trkpt>
      <trkpt lat="46.2076" lon="6.78806">
        <ele>1864</ele>
        <time>2016-08-02T12:54:06.000Z</time>
      </trkpt>
      <trkpt lat="46.20752" lon="6.78799">
        <ele>1864</ele>
        <time>2016-08-02T12:54:15.000Z</time>
      </trkpt>
      <trkpt lat="46.20752" lon="6.78784">
        <ele>1857</ele>
        <time>2016-08-02T12:54:36.000Z</time>
      </trkpt>
      <trkpt lat="46.20758" lon="6.78774">
        <ele>1855</ele>
        <time>2016-08-02T12:54:43.000Z</time>
      </trkpt>
      <trkpt lat="46.20767" lon="6.78768">
        <ele>1856</ele>
        <time>2016-08-02T12:54:52.000Z</time>
      </trkpt>
      <trkpt lat="46.20775" lon="6.78762">
        <ele>1858</ele>
        <time>2016-08-02T12:55:56.000Z</time>
      </trkpt>
      <trkpt lat="46.20783" lon="6.78754">
        <ele>1857</ele>
        <time>2016-08-02T12:56:06.000Z</time>
      </trkpt>
      <trkpt lat="46.20791" lon="6.78748">
        <ele>1857</ele>
        <time>2016-08-02T12:56:14.000Z</time>
      </trkpt>
      <trkpt lat="46.20802" lon="6.7875">
        <ele>1852</ele>
        <time>2016-08-02T12:56:22.000Z</time>
      </trkpt>
      <trkpt lat="46.2081" lon="6.78744">
        <ele>1851</ele>
        <time>2016-08-02T12:56:30.000Z</time>
      </trkpt>
      <trkpt lat="46.2082" lon="6.78742">
        <ele>1847</ele>
        <time>2016-08-02T12:56:37.000Z</time>
      </trkpt>
      <trkpt lat="46.20828" lon="6.78735">
        <ele>1844</ele>
        <time>2016-08-02T12:56:44.000Z</time>
      </trkpt>
      <trkpt lat="46.20836" lon="6.78729">
        <ele>1842</ele>
        <time>2016-08-02T12:56:52.000Z</time>
      </trkpt>
      <trkpt lat="46.20845" lon="6.78726">
        <ele>1840</ele>
        <time>2016-08-02T12:57:00.000Z</time>
      </trkpt>
      <trkpt lat="46.20854" lon="6.78722">
        <ele>1839</ele>
        <time>2016-08-02T12:57:09.000Z</time>
      </trkpt>
      <trkpt lat="46.20864" lon="6.78717">
        <ele>1837</ele>
        <time>2016-08-02T12:57:16.000Z</time>
      </trkpt>
      <trkpt lat="46.20872" lon="6.7871">
        <ele>1835</ele>
        <time>2016-08-02T12:57:24.000Z</time>
      </trkpt>
      <trkpt lat="46.20881" lon="6.78703">
        <ele>1834</ele>
        <time>2016-08-02T12:57:31.000Z</time>
      </trkpt>
      <trkpt lat="46.20889" lon="6.78697">
        <ele>1831</ele>
        <time>2016-08-02T12:57:39.000Z</time>
      </trkpt>
      <trkpt lat="46.20899" lon="6.78691">
        <ele>1827</ele>
        <time>2016-08-02T12:57:46.000Z</time>
      </trkpt>
      <trkpt lat="46.20908" lon="6.78687">
        <ele>1828</ele>
        <time>2016-08-02T12:57:55.000Z</time>
      </trkpt>
      <trkpt lat="46.20915" lon="6.78679">
        <ele>1824</ele>
        <time>2016-08-02T12:58:03.000Z</time>
      </trkpt>
      <trkpt lat="46.20925" lon="6.78682">
        <ele>1820</ele>
        <time>2016-08-02T12:58:11.000Z</time>
      </trkpt>
      <trkpt lat="46.20934" lon="6.78684">
        <ele>1820</ele>
        <time>2016-08-02T12:58:20.000Z</time>
      </trkpt>
      <trkpt lat="46.20938" lon="6.78672">
        <ele>1818</ele>
        <time>2016-08-02T12:58:35.000Z</time>
      </trkpt>
      <trkpt lat="46.20938" lon="6.78659">
        <ele>1815</ele>
        <time>2016-08-02T12:58:44.000Z</time>
      </trkpt>
      <trkpt lat="46.20937" lon="6.78645">
        <ele>1812</ele>
        <time>2016-08-02T12:58:52.000Z</time>
      </trkpt>
      <trkpt lat="46.20942" lon="6.78632">
        <ele>1808</ele>
        <time>2016-08-02T12:59:00.000Z</time>
      </trkpt>
      <trkpt lat="46.20946" lon="6.7862">
        <ele>1808</ele>
        <time>2016-08-02T12:59:07.000Z</time>
      </trkpt>
      <trkpt lat="46.2095" lon="6.78608">
        <ele>1806</ele>
        <time>2016-08-02T12:59:14.000Z</time>
      </trkpt>
      <trkpt lat="46.20957" lon="6.78599">
        <ele>1810</ele>
        <time>2016-08-02T12:59:21.000Z</time>
      </trkpt>
      <trkpt lat="46.20964" lon="6.78586">
        <ele>1804</ele>
        <time>2016-08-02T12:59:28.000Z</time>
      </trkpt>
      <trkpt lat="46.20972" lon="6.7858">
        <ele>1805</ele>
        <time>2016-08-02T12:59:37.000Z</time>
      </trkpt>
      <trkpt lat="46.20982" lon="6.78578">
        <ele>1805</ele>
        <time>2016-08-02T12:59:45.000Z</time>
      </trkpt>
      <trkpt lat="46.20992" lon="6.78577">
        <ele>1806</ele>
        <time>2016-08-02T12:59:52.000Z</time>
      </trkpt>
      <trkpt lat="46.21001" lon="6.78575">
        <ele>1808</ele>
        <time>2016-08-02T13:00:01.000Z</time>
      </trkpt>
      <trkpt lat="46.21009" lon="6.78568">
        <ele>1806</ele>
        <time>2016-08-02T13:00:08.000Z</time>
      </trkpt>
      <trkpt lat="46.21021" lon="6.78563">
        <ele>1809</ele>
        <time>2016-08-02T13:00:17.000Z</time>
      </trkpt>
      <trkpt lat="46.21027" lon="6.78552">
        <ele>1805</ele>
        <time>2016-08-02T13:00:25.000Z</time>
      </trkpt>
      <trkpt lat="46.21033" lon="6.78541">
        <ele>1803</ele>
        <time>2016-08-02T13:00:32.000Z</time>
      </trkpt>
      <trkpt lat="46.2104" lon="6.78534">
        <ele>1797</ele>
        <time>2016-08-02T13:00:39.000Z</time>
      </trkpt>
      <trkpt lat="46.21044" lon="6.78522">
        <ele>1796</ele>
        <time>2016-08-02T13:00:46.000Z</time>
      </trkpt>
      <trkpt lat="46.2105" lon="6.78511">
        <ele>1791</ele>
        <time>2016-08-02T13:00:54.000Z</time>
      </trkpt>
      <trkpt lat="46.21054" lon="6.78498">
        <ele>1794</ele>
        <time>2016-08-02T13:01:03.000Z</time>
      </trkpt>
      <trkpt lat="46.21059" lon="6.78486">
        <ele>1796</ele>
        <time>2016-08-02T13:01:11.000Z</time>
      </trkpt>
      <trkpt lat="46.2106" lon="6.78472">
        <ele>1798</ele>
        <time>2016-08-02T13:01:18.000Z</time>
      </trkpt>
      <trkpt lat="46.21063" lon="6.78459">
        <ele>1792</ele>
        <time>2016-08-02T13:01:24.000Z</time>
      </trkpt>
      <trkpt lat="46.21066" lon="6.78445">
        <ele>1790</ele>
        <time>2016-08-02T13:01:32.000Z</time>
      </trkpt>
      <trkpt lat="46.21068" lon="6.78431">
        <ele>1789</ele>
        <time>2016-08-02T13:01:39.000Z</time>
      </trkpt>
      <trkpt lat="46.21069" lon="6.78417">
        <ele>1783</ele>
        <time>2016-08-02T13:01:47.000Z</time>
      </trkpt>
      <trkpt lat="46.21072" lon="6.78404">
        <ele>1785</ele>
        <time>2016-08-02T13:01:55.000Z</time>
      </trkpt>
      <trkpt lat="46.21074" lon="6.7839">
        <ele>1789</ele>
        <time>2016-08-02T13:02:03.000Z</time>
      </trkpt>
      <trkpt lat="46.2108" lon="6.7838">
        <ele>1784</ele>
        <time>2016-08-02T13:02:12.000Z</time>
      </trkpt>
      <trkpt lat="46.21082" lon="6.78365">
        <ele>1785</ele>
        <time>2016-08-02T13:02:20.000Z</time>
      </trkpt>
      <trkpt lat="46.21086" lon="6.78352">
        <ele>1781</ele>
        <time>2016-08-02T13:02:26.000Z</time>
      </trkpt>
      <trkpt lat="46.21087" lon="6.78338">
        <ele>1779</ele>
        <time>2016-08-02T13:02:34.000Z</time>
      </trkpt>
      <trkpt lat="46.21088" lon="6.78324">
        <ele>1776</ele>
        <time>2016-08-02T13:02:41.000Z</time>
      </trkpt>
      <trkpt lat="46.21087" lon="6.78311">
        <ele>1778</ele>
        <time>2016-08-02T13:02:47.000Z</time>
      </trkpt>
      <trkpt lat="46.21092" lon="6.78299">
        <ele>1779</ele>
        <time>2016-08-02T13:02:55.000Z</time>
      </trkpt>
      <trkpt lat="46.21097" lon="6.78287">
        <ele>1772</ele>
        <time>2016-08-02T13:03:02.000Z</time>
      </trkpt>
      <trkpt lat="46.21102" lon="6.78274">
        <ele>1772</ele>
        <time>2016-08-02T13:03:10.000Z</time>
      </trkpt>
      <trkpt lat="46.21106" lon="6.78262">
        <ele>1771</ele>
        <time>2016-08-02T13:03:18.000Z</time>
      </trkpt>
      <trkpt lat="46.21111" lon="6.7825">
        <ele>1770</ele>
        <time>2016-08-02T13:03:25.000Z</time>
      </trkpt>
      <trkpt lat="46.21117" lon="6.7824">
        <ele>1767</ele>
        <time>2016-08-02T13:03:32.000Z</time>
      </trkpt>
      <trkpt lat="46.21122" lon="6.78228">
        <ele>1766</ele>
        <time>2016-08-02T13:03:40.000Z</time>
      </trkpt>
      <trkpt lat="46.21118" lon="6.78217">
        <ele>1763</ele>
        <time>2016-08-02T13:03:47.000Z</time>
      </trkpt>
      <trkpt lat="46.21118" lon="6.78204">
        <ele>1761</ele>
        <time>2016-08-02T13:03:55.000Z</time>
      </trkpt>
      <trkpt lat="46.21117" lon="6.7819">
        <ele>1762</ele>
        <time>2016-08-02T13:04:03.000Z</time>
      </trkpt>
      <trkpt lat="46.21117" lon="6.78176">
        <ele>1768</ele>
        <time>2016-08-02T13:04:10.000Z</time>
      </trkpt>
      <trkpt lat="46.21122" lon="6.78163">
        <ele>1758</ele>
        <time>2016-08-02T13:04:22.000Z</time>
      </trkpt>
      <trkpt lat="46.21127" lon="6.78152">
        <ele>1758</ele>
        <time>2016-08-02T13:04:29.000Z</time>
      </trkpt>
      <trkpt lat="46.21127" lon="6.78138">
        <ele>1755</ele>
        <time>2016-08-02T13:04:37.000Z</time>
      </trkpt>
      <trkpt lat="46.2113" lon="6.78125">
        <ele>1754</ele>
        <time>2016-08-02T13:04:44.000Z</time>
      </trkpt>
      <trkpt lat="46.2113" lon="6.78111">
        <ele>1747</ele>
        <time>2016-08-02T13:04:54.000Z</time>
      </trkpt>
      <trkpt lat="46.21127" lon="6.78096">
        <ele>1745</ele>
        <time>2016-08-02T13:05:03.000Z</time>
      </trkpt>
      <trkpt lat="46.21132" lon="6.78085">
        <ele>1743</ele>
        <time>2016-08-02T13:05:12.000Z</time>
      </trkpt>
      <trkpt lat="46.21136" lon="6.78072">
        <ele>1736</ele>
        <time>2016-08-02T13:05:21.000Z</time>
      </trkpt>
      <trkpt lat="46.21139" lon="6.7806">
        <ele>1736</ele>
        <time>2016-08-02T13:05:30.000Z</time>
      </trkpt>
      <trkpt lat="46.21143" lon="6.78048">
        <ele>1733</ele>
        <time>2016-08-02T13:05:36.000Z</time>
      </trkpt>
      <trkpt lat="46.21148" lon="6.78036">
        <ele>1732</ele>
        <time>2016-08-02T13:05:44.000Z</time>
      </trkpt>
      <trkpt lat="46.21152" lon="6.78023">
        <ele>1731</ele>
        <time>2016-08-02T13:05:54.000Z</time>
      </trkpt>
      <trkpt lat="46.21153" lon="6.78009">
        <ele>1727</ele>
        <time>2016-08-02T13:06:02.000Z</time>
      </trkpt>
      <trkpt lat="46.21158" lon="6.77998">
        <ele>1725</ele>
        <time>2016-08-02T13:06:10.000Z</time>
      </trkpt>
      <trkpt lat="46.21162" lon="6.77986">
        <ele>1717</ele>
        <time>2016-08-02T13:06:17.000Z</time>
      </trkpt>
      <trkpt lat="46.21169" lon="6.77974">
        <ele>1723</ele>
        <time>2016-08-02T13:06:29.000Z</time>
      </trkpt>
      <trkpt lat="46.21168" lon="6.77959">
        <ele>1728</ele>
        <time>2016-08-02T13:06:36.000Z</time>
      </trkpt>
      <trkpt lat="46.21169" lon="6.77945">
        <ele>1727</ele>
        <time>2016-08-02T13:06:45.000Z</time>
      </trkpt>
      <trkpt lat="46.21171" lon="6.77932">
        <ele>1727</ele>
        <time>2016-08-02T13:06:52.000Z</time>
      </trkpt>
      <trkpt lat="46.21174" lon="6.77919">
        <ele>1723</ele>
        <time>2016-08-02T13:07:00.000Z</time>
      </trkpt>
      <trkpt lat="46.21177" lon="6.77906">
        <ele>1722</ele>
        <time>2016-08-02T13:07:07.000Z</time>
      </trkpt>
      <trkpt lat="46.21184" lon="6.77895">
        <ele>1722</ele>
        <time>2016-08-02T13:07:16.000Z</time>
      </trkpt>
      <trkpt lat="46.21191" lon="6.77885">
        <ele>1720</ele>
        <time>2016-08-02T13:07:25.000Z</time>
      </trkpt>
      <trkpt lat="46.21201" lon="6.77879">
        <ele>1712</ele>
        <time>2016-08-02T13:07:33.000Z</time>
      </trkpt>
      <trkpt lat="46.21207" lon="6.77869">
        <ele>1707</ele>
        <time>2016-08-02T13:07:39.000Z</time>
      </trkpt>
      <trkpt lat="46.21213" lon="6.77859">
        <ele>1700</ele>
        <time>2016-08-02T13:07:48.000Z</time>
      </trkpt>
      <trkpt lat="46.21219" lon="6.77849">
        <ele>1696</ele>
        <time>2016-08-02T13:07:54.000Z</time>
      </trkpt>
      <trkpt lat="46.21225" lon="6.77839">
        <ele>1697</ele>
        <time>2016-08-02T13:08:03.000Z</time>
      </trkpt>
      <trkpt lat="46.21231" lon="6.77828">
        <ele>1696</ele>
        <time>2016-08-02T13:08:10.000Z</time>
      </trkpt>
      <trkpt lat="46.21237" lon="6.77818">
        <ele>1694</ele>
        <time>2016-08-02T13:08:19.000Z</time>
      </trkpt>
      <trkpt lat="46.21244" lon="6.7781">
        <ele>1688</ele>
        <time>2016-08-02T13:08:26.000Z</time>
      </trkpt>
      <trkpt lat="46.2125" lon="6.77799">
        <ele>1690</ele>
        <time>2016-08-02T13:08:36.000Z</time>
      </trkpt>
      <trkpt lat="46.21258" lon="6.77793">
        <ele>1689</ele>
        <time>2016-08-02T13:08:43.000Z</time>
      </trkpt>
      <trkpt lat="46.21265" lon="6.77784">
        <ele>1686</ele>
        <time>2016-08-02T13:08:52.000Z</time>
      </trkpt>
      <trkpt lat="46.2127" lon="6.77772">
        <ele>1685</ele>
        <time>2016-08-02T13:09:00.000Z</time>
      </trkpt>
      <trkpt lat="46.21273" lon="6.77759">
        <ele>1686</ele>
        <time>2016-08-02T13:09:06.000Z</time>
      </trkpt>
      <trkpt lat="46.21272" lon="6.77744">
        <ele>1687</ele>
        <time>2016-08-02T13:09:14.000Z</time>
      </trkpt>
      <trkpt lat="46.21263" lon="6.77739">
        <ele>1687</ele>
        <time>2016-08-02T13:09:32.000Z</time>
      </trkpt>
      <trkpt lat="46.21252" lon="6.7774">
        <ele>1689</ele>
        <time>2016-08-02T13:09:48.000Z</time>
      </trkpt>
      <trkpt lat="46.21243" lon="6.77741">
        <ele>1688</ele>
        <time>2016-08-02T13:09:55.000Z</time>
      </trkpt>
      <trkpt lat="46.21239" lon="6.77754">
        <ele>1685</ele>
        <time>2016-08-02T13:10:04.000Z</time>
      </trkpt>
      <trkpt lat="46.21231" lon="6.77759">
        <ele>1683</ele>
        <time>2016-08-02T13:10:09.000Z</time>
      </trkpt>
      <trkpt lat="46.21221" lon="6.77766">
        <ele>1677</ele>
        <time>2016-08-02T13:10:16.000Z</time>
      </trkpt>
      <trkpt lat="46.21213" lon="6.77773">
        <ele>1675</ele>
        <time>2016-08-02T13:10:24.000Z</time>
      </trkpt>
      <trkpt lat="46.21204" lon="6.77778">
        <ele>1676</ele>
        <time>2016-08-02T13:10:30.000Z</time>
      </trkpt>
      <trkpt lat="46.21197" lon="6.77788">
        <ele>1673</ele>
        <time>2016-08-02T13:10:41.000Z</time>
      </trkpt>
      <trkpt lat="46.21188" lon="6.7779">
        <ele>1671</ele>
        <time>2016-08-02T13:10:48.000Z</time>
      </trkpt>
      <trkpt lat="46.21178" lon="6.77791">
        <ele>1671</ele>
        <time>2016-08-02T13:10:55.000Z</time>
      </trkpt>
      <trkpt lat="46.21168" lon="6.77793">
        <ele>1670</ele>
        <time>2016-08-02T13:11:01.000Z</time>
      </trkpt>
      <trkpt lat="46.21158" lon="6.77797">
        <ele>1667</ele>
        <time>2016-08-02T13:11:10.000Z</time>
      </trkpt>
      <trkpt lat="46.2115" lon="6.77807">
        <ele>1663</ele>
        <time>2016-08-02T13:11:31.000Z</time>
      </trkpt>
      <trkpt lat="46.21142" lon="6.77813">
        <ele>1662</ele>
        <time>2016-08-02T13:11:39.000Z</time>
      </trkpt>
      <trkpt lat="46.21134" lon="6.77821">
        <ele>1661</ele>
        <time>2016-08-02T13:11:48.000Z</time>
      </trkpt>
      <trkpt lat="46.21124" lon="6.77826">
        <ele>1657</ele>
        <time>2016-08-02T13:11:56.000Z</time>
      </trkpt>
      <trkpt lat="46.21116" lon="6.77832">
        <ele>1657</ele>
        <time>2016-08-02T13:12:07.000Z</time>
      </trkpt>
      <trkpt lat="46.21107" lon="6.77839">
        <ele>1654</ele>
        <time>2016-08-02T13:12:14.000Z</time>
      </trkpt>
      <trkpt lat="46.211" lon="6.77849">
        <ele>1652</ele>
        <time>2016-08-02T13:12:24.000Z</time>
      </trkpt>
      <trkpt lat="46.21092" lon="6.77841">
        <ele>1652</ele>
        <time>2016-08-02T13:12:33.000Z</time>
      </trkpt>
      <trkpt lat="46.21084" lon="6.77835">
        <ele>1648</ele>
        <time>2016-08-02T13:12:41.000Z</time>
      </trkpt>
      <trkpt lat="46.21075" lon="6.77834">
        <ele>1650</ele>
        <time>2016-08-02T13:13:05.000Z</time>
      </trkpt>
      <trkpt lat="46.21065" lon="6.77836">
        <ele>1652</ele>
        <time>2016-08-02T13:13:14.000Z</time>
      </trkpt>
      <trkpt lat="46.21056" lon="6.77834">
        <ele>1649</ele>
        <time>2016-08-02T13:13:22.000Z</time>
      </trkpt>
      <trkpt lat="46.21046" lon="6.77833">
        <ele>1646</ele>
        <time>2016-08-02T13:13:30.000Z</time>
      </trkpt>
      <trkpt lat="46.21037" lon="6.7783">
        <ele>1646</ele>
        <time>2016-08-02T13:13:38.000Z</time>
      </trkpt>
      <trkpt lat="46.21028" lon="6.77833">
        <ele>1644</ele>
        <time>2016-08-02T13:13:47.000Z</time>
      </trkpt>
      <trkpt lat="46.21016" lon="6.77834">
        <ele>1644</ele>
        <time>2016-08-02T13:13:57.000Z</time>
      </trkpt>
      <trkpt lat="46.21006" lon="6.77837">
        <ele>1639</ele>
        <time>2016-08-02T13:14:05.000Z</time>
      </trkpt>
      <trkpt lat="46.20997" lon="6.77839">
        <ele>1632</ele>
        <time>2016-08-02T13:14:18.000Z</time>
      </trkpt>
      <trkpt lat="46.20987" lon="6.77837">
        <ele>1629</ele>
        <time>2016-08-02T13:14:26.000Z</time>
      </trkpt>
      <trkpt lat="46.20977" lon="6.77834">
        <ele>1627</ele>
        <time>2016-08-02T13:14:35.000Z</time>
      </trkpt>
      <trkpt lat="46.20968" lon="6.77833">
        <ele>1625</ele>
        <time>2016-08-02T13:14:43.000Z</time>
      </trkpt>
      <trkpt lat="46.20959" lon="6.7783">
        <ele>1621</ele>
        <time>2016-08-02T13:14:50.000Z</time>
      </trkpt>
      <trkpt lat="46.20949" lon="6.77825">
        <ele>1621</ele>
        <time>2016-08-02T13:14:59.000Z</time>
      </trkpt>
      <trkpt lat="46.2094" lon="6.77819">
        <ele>1622</ele>
        <time>2016-08-02T13:15:07.000Z</time>
      </trkpt>
      <trkpt lat="46.20935" lon="6.77808">
        <ele>1618</ele>
        <time>2016-08-02T13:15:36.000Z</time>
      </trkpt>
      <trkpt lat="46.20927" lon="6.77803">
        <ele>1621</ele>
        <time>2016-08-02T13:15:44.000Z</time>
      </trkpt>
      <trkpt lat="46.20919" lon="6.77794">
        <ele>1619</ele>
        <time>2016-08-02T13:15:52.000Z</time>
      </trkpt>
      <trkpt lat="46.20916" lon="6.77782">
        <ele>1621</ele>
        <time>2016-08-02T13:15:59.000Z</time>
      </trkpt>
      <trkpt lat="46.20919" lon="6.77769">
        <ele>1618</ele>
        <time>2016-08-02T13:16:11.000Z</time>
      </trkpt>
      <trkpt lat="46.20925" lon="6.77757">
        <ele>1614</ele>
        <time>2016-08-02T13:16:20.000Z</time>
      </trkpt>
      <trkpt lat="46.20922" lon="6.77743">
        <ele>1604</ele>
        <time>2016-08-02T13:16:30.000Z</time>
      </trkpt>
      <trkpt lat="46.20923" lon="6.7773">
        <ele>1605</ele>
        <time>2016-08-02T13:16:37.000Z</time>
      </trkpt>
      <trkpt lat="46.20926" lon="6.77716">
        <ele>1597</ele>
        <time>2016-08-02T13:16:47.000Z</time>
      </trkpt>
      <trkpt lat="46.20925" lon="6.77703">
        <ele>1592</ele>
        <time>2016-08-02T13:16:56.000Z</time>
      </trkpt>
      <trkpt lat="46.20925" lon="6.77689">
        <ele>1583</ele>
        <time>2016-08-02T13:17:05.000Z</time>
      </trkpt>
      <trkpt lat="46.20926" lon="6.77675">
        <ele>1586</ele>
        <time>2016-08-02T13:17:14.000Z</time>
      </trkpt>
      <trkpt lat="46.20922" lon="6.77663">
        <ele>1577</ele>
        <time>2016-08-02T13:17:22.000Z</time>
      </trkpt>
      <trkpt lat="46.20922" lon="6.7765">
        <ele>1579</ele>
        <time>2016-08-02T13:17:32.000Z</time>
      </trkpt>
      <trkpt lat="46.20927" lon="6.77638">
        <ele>1578</ele>
        <time>2016-08-02T13:17:38.000Z</time>
      </trkpt>
      <trkpt lat="46.20935" lon="6.77631">
        <ele>1577</ele>
        <time>2016-08-02T13:17:45.000Z</time>
      </trkpt>
      <trkpt lat="46.20941" lon="6.7762">
        <ele>1585</ele>
        <time>2016-08-02T13:18:05.000Z</time>
      </trkpt>
      <trkpt lat="46.2095" lon="6.77615">
        <ele>1582</ele>
        <time>2016-08-02T13:18:12.000Z</time>
      </trkpt>
      <trkpt lat="46.20952" lon="6.77602">
        <ele>1580</ele>
        <time>2016-08-02T13:18:41.000Z</time>
      </trkpt>
      <trkpt lat="46.20959" lon="6.77594">
        <ele>1577</ele>
        <time>2016-08-02T13:19:05.000Z</time>
      </trkpt>
      <trkpt lat="46.20965" lon="6.77584">
        <ele>1574</ele>
        <time>2016-08-02T13:19:19.000Z</time>
      </trkpt>
      <trkpt lat="46.20966" lon="6.7757">
        <ele>1572</ele>
        <time>2016-08-02T13:19:28.000Z</time>
      </trkpt>
      <trkpt lat="46.2097" lon="6.77559">
        <ele>1570</ele>
        <time>2016-08-02T13:19:36.000Z</time>
      </trkpt>
      <trkpt lat="46.20975" lon="6.77547">
        <ele>1566</ele>
        <time>2016-08-02T13:19:50.000Z</time>
      </trkpt>
      <trkpt lat="46.20984" lon="6.77541">
        <ele>1559</ele>
        <time>2016-08-02T13:19:59.000Z</time>
      </trkpt>
      <trkpt lat="46.20988" lon="6.77529">
        <ele>1557</ele>
        <time>2016-08-02T13:20:06.000Z</time>
      </trkpt>
      <trkpt lat="46.20994" lon="6.77518">
        <ele>1550</ele>
        <time>2016-08-02T13:20:15.000Z</time>
      </trkpt>
      <trkpt lat="46.20997" lon="6.77505">
        <ele>1548</ele>
        <time>2016-08-02T13:20:21.000Z</time>
      </trkpt>
      <trkpt lat="46.21002" lon="6.77494">
        <ele>1544</ele>
        <time>2016-08-02T13:20:30.000Z</time>
      </trkpt>
      <trkpt lat="46.2101" lon="6.77487">
        <ele>1542</ele>
        <time>2016-08-02T13:20:39.000Z</time>
      </trkpt>
      <trkpt lat="46.21018" lon="6.77479">
        <ele>1553</ele>
        <time>2016-08-02T13:21:34.000Z</time>
      </trkpt>
      <trkpt lat="46.21026" lon="6.77472">
        <ele>1548</ele>
        <time>2016-08-02T13:23:08.000Z</time>
      </trkpt>
      <trkpt lat="46.21034" lon="6.77467">
        <ele>1550</ele>
        <time>2016-08-02T13:23:31.000Z</time>
      </trkpt>
      <trkpt lat="46.21041" lon="6.77456">
        <ele>1541</ele>
        <time>2016-08-02T13:24:06.000Z</time>
      </trkpt>
      <trkpt lat="46.2105" lon="6.77452">
        <ele>1535</ele>
        <time>2016-08-02T13:24:16.000Z</time>
      </trkpt>
      <trkpt lat="46.21059" lon="6.77446">
        <ele>1532</ele>
        <time>2016-08-02T13:24:31.000Z</time>
      </trkpt>
      <trkpt lat="46.21067" lon="6.77438">
        <ele>1528</ele>
        <time>2016-08-02T13:24:55.000Z</time>
      </trkpt>
      <trkpt lat="46.21064" lon="6.77425">
        <ele>1527</ele>
        <time>2016-08-02T13:25:05.000Z</time>
      </trkpt>
      <trkpt lat="46.21056" lon="6.77429">
        <ele>1529</ele>
        <time>2016-08-02T13:25:14.000Z</time>
      </trkpt>
      <trkpt lat="46.21047" lon="6.77434">
        <ele>1528</ele>
        <time>2016-08-02T13:25:21.000Z</time>
      </trkpt>
    </trkseg>
  </trk>
</gpx>